Ticket #2739: training.gpx

File training.gpx, 150.2 KB (added by andreas@…, 17 years ago)
Line 
1<?xml version="1.0" encoding="UTF-8"?>
2<gpx version="1.1" creator="Run.GPS" xmlns:xsi="http://www.w3.org/2001/XMLSchema-instance" schemaLocation="http://www.topografix.com/GPX/1/1/gpx.xsd" xmlns="http://www.topografix.com/GPX/1/1">
3 <metadata>
4 <name>Kleine Volksparkrunde</name>
5 <desc>
6 </desc>
7 <link href="http://www.rungps.net">
8 <text>Run.GPS by eSymetric GmbH</text>
9 </link>
10 </metadata>
11 <trk>
12 <name>Kleine Volksparkrunde</name>
13 <trkseg>
14 <trkpt lat="51.401079600" lon="6.709241900">
15 <ele>51.225000381</ele>
16 <time>2009-06-15T16:59:15.545Z</time>
17 </trkpt>
18 <trkpt lat="51.401036960" lon="6.709223250">
19 <ele>51.225000381</ele>
20 <time>2009-06-15T16:59:16.627Z</time>
21 </trkpt>
22 <trkpt lat="51.401023960" lon="6.709211160">
23 <ele>51.225000381</ele>
24 <time>2009-06-15T16:59:18.629Z</time>
25 </trkpt>
26 <trkpt lat="51.401036650" lon="6.709208410">
27 <ele>51.225000381</ele>
28 <time>2009-06-15T16:59:22.658Z</time>
29 </trkpt>
30 <trkpt lat="51.401006530" lon="6.709176800">
31 <ele>51.225000381</ele>
32 <time>2009-06-15T16:59:25.712Z</time>
33 </trkpt>
34 <trkpt lat="51.401028190" lon="6.709176360">
35 <ele>51.225000381</ele>
36 <time>2009-06-15T16:59:27.723Z</time>
37 </trkpt>
38 <trkpt lat="51.401031910" lon="6.709161870">
39 <ele>51.225000381</ele>
40 <time>2009-06-15T16:59:30.778Z</time>
41 </trkpt>
42 <trkpt lat="51.401041410" lon="6.709157970">
43 <ele>51.225000381</ele>
44 <time>2009-06-15T16:59:33.809Z</time>
45 </trkpt>
46 <trkpt lat="51.401047850" lon="6.709157650">
47 <ele>58.167858941</ele>
48 <time>2009-06-15T16:59:36.838Z</time>
49 </trkpt>
50 <trkpt lat="51.401054170" lon="6.709161920">
51 <ele>57.843335215</ele>
52 <time>2009-06-15T16:59:39.936Z</time>
53 </trkpt>
54 <trkpt lat="51.401057380" lon="6.709160230">
55 <ele>57.369698727</ele>
56 <time>2009-06-15T16:59:42.951Z</time>
57 </trkpt>
58 <trkpt lat="51.401068860" lon="6.709164250">
59 <ele>56.944446352</ele>
60 <time>2009-06-15T16:59:46.008Z</time>
61 </trkpt>
62 <trkpt lat="51.401092470" lon="6.709161430">
63 <ele>56.578949376</ele>
64 <time>2009-06-15T16:59:49.075Z</time>
65 </trkpt>
66 <trkpt lat="51.401098700" lon="6.709164750">
67 <ele>55.883335295</ele>
68 <time>2009-06-15T16:59:53.110Z</time>
69 </trkpt>
70 <trkpt lat="51.401102230" lon="6.709164780">
71 <ele>55.600001942</ele>
72 <time>2009-06-15T16:59:56.140Z</time>
73 </trkpt>
74 <trkpt lat="51.401629180" lon="6.709091890">
75 <ele>55.345654032</ele>
76 <time>2009-06-15T16:59:58.135Z</time>
77 </trkpt>
78 <trkpt lat="51.401664360" lon="6.709103120">
79 <ele>55.219150787</ele>
80 <time>2009-06-15T16:59:59.212Z</time>
81 </trkpt>
82 <trkpt lat="51.401679740" lon="6.709101940">
83 <ele>55.093751907</ele>
84 <time>2009-06-15T17:00:00.170Z</time>
85 </trkpt>
86 <trkpt lat="51.401750800" lon="6.709101580">
87 <ele>54.874001770</ele>
88 <time>2009-06-15T17:00:03.201Z</time>
89 </trkpt>
90 <trkpt lat="51.401792100" lon="6.709099140">
91 <ele>54.696155695</ele>
92 <time>2009-06-15T17:00:05.211Z</time>
93 </trkpt>
94 <trkpt lat="51.401885520" lon="6.709104780">
95 <ele>54.474075741</ele>
96 <time>2009-06-15T17:00:08.246Z</time>
97 </trkpt>
98 <trkpt lat="51.401944020" lon="6.709106800">
99 <ele>54.464816482</ele>
100 <time>2009-06-15T17:00:09.353Z</time>
101 </trkpt>
102 <trkpt lat="51.402013600" lon="6.709120590">
103 <ele>54.240742436</ele>
104 <time>2009-06-15T17:00:12.340Z</time>
105 </trkpt>
106 <trkpt lat="51.402027210" lon="6.709129260">
107 <ele>54.105557336</ele>
108 <time>2009-06-15T17:00:13.424Z</time>
109 </trkpt>
110 <trkpt lat="51.402043230" lon="6.709125560">
111 <ele>53.961112976</ele>
112 <time>2009-06-15T17:00:14.380Z</time>
113 </trkpt>
114 <trkpt lat="51.402061550" lon="6.709114080">
115 <ele>53.838183732</ele>
116 <time>2009-06-15T17:00:15.386Z</time>
117 </trkpt>
118 <trkpt lat="51.402071690" lon="6.709115360">
119 <ele>53.556365551</ele>
120 <time>2009-06-15T17:00:16.447Z</time>
121 </trkpt>
122 <trkpt lat="51.402088680" lon="6.709102800">
123 <ele>53.210911005</ele>
124 <time>2009-06-15T17:00:17.523Z</time>
125 </trkpt>
126 <trkpt lat="51.402110920" lon="6.709092920">
127 <ele>52.867274614</ele>
128 <time>2009-06-15T17:00:18.479Z</time>
129 </trkpt>
130 <trkpt lat="51.402140480" lon="6.709067070">
131 <ele>52.500001942</ele>
132 <time>2009-06-15T17:00:19.483Z</time>
133 </trkpt>
134 <trkpt lat="51.402185300" lon="6.709030740">
135 <ele>52.056365551</ele>
136 <time>2009-06-15T17:00:20.488Z</time>
137 </trkpt>
138 <trkpt lat="51.402231120" lon="6.709023140">
139 <ele>51.375001907</ele>
140 <time>2009-06-15T17:00:22.539Z</time>
141 </trkpt>
142 <trkpt lat="51.402243900" lon="6.709052050">
143 <ele>50.973216193</ele>
144 <time>2009-06-15T17:00:23.544Z</time>
145 </trkpt>
146 <trkpt lat="51.402258600" lon="6.709071430">
147 <ele>50.589287622</ele>
148 <time>2009-06-15T17:00:24.591Z</time>
149 </trkpt>
150 <trkpt lat="51.402303120" lon="6.709113400">
151 <ele>49.307274558</ele>
152 <time>2009-06-15T17:00:28.088Z</time>
153 </trkpt>
154 <trkpt lat="51.402334560" lon="6.709120040">
155 <ele>48.705456266</ele>
156 <time>2009-06-15T17:00:30.194Z</time>
157 </trkpt>
158 <trkpt lat="51.402351310" lon="6.709118300">
159 <ele>48.450910811</ele>
160 <time>2009-06-15T17:00:31.149Z</time>
161 </trkpt>
162 <trkpt lat="51.402372360" lon="6.709126150">
163 <ele>48.210910866</ele>
164 <time>2009-06-15T17:00:32.154Z</time>
165 </trkpt>
166 <trkpt lat="51.402420270" lon="6.709138320">
167 <ele>47.754547258</ele>
168 <time>2009-06-15T17:00:34.251Z</time>
169 </trkpt>
170 <trkpt lat="51.402490570" lon="6.709143620">
171 <ele>47.107274420</ele>
172 <time>2009-06-15T17:00:37.216Z</time>
173 </trkpt>
174 <trkpt lat="51.402522420" lon="6.709136030">
175 <ele>46.796430179</ele>
176 <time>2009-06-15T17:00:39.262Z</time>
177 </trkpt>
178 <trkpt lat="51.402583830" lon="6.709134150">
179 <ele>46.200001580</ele>
180 <time>2009-06-15T17:00:42.298Z</time>
181 </trkpt>
182 <trkpt lat="51.402671680" lon="6.709129960">
183 <ele>45.616072927</ele>
184 <time>2009-06-15T17:00:45.410Z</time>
185 </trkpt>
186 <trkpt lat="51.402753100" lon="6.709129450">
187 <ele>45.059650354</ele>
188 <time>2009-06-15T17:00:49.467Z</time>
189 </trkpt>
190 <trkpt lat="51.402827750" lon="6.709109770">
191 <ele>44.656141716</ele>
192 <time>2009-06-15T17:00:52.471Z</time>
193 </trkpt>
194 <trkpt lat="51.402886850" lon="6.709084500">
195 <ele>44.444828954</ele>
196 <time>2009-06-15T17:00:54.448Z</time>
197 </trkpt>
198 <trkpt lat="51.402919660" lon="6.709061960">
199 <ele>44.281035851</ele>
200 <time>2009-06-15T17:00:55.453Z</time>
201 </trkpt>
202 <trkpt lat="51.402947490" lon="6.709056480">
203 <ele>44.105173703</ele>
204 <time>2009-06-15T17:00:56.515Z</time>
205 </trkpt>
206 <trkpt lat="51.402995150" lon="6.709010520">
207 <ele>43.577587522</ele>
208 <time>2009-06-15T17:00:59.480Z</time>
209 </trkpt>
210 <trkpt lat="51.403010820" lon="6.708994380">
211 <ele>43.400001263</ele>
212 <time>2009-06-15T17:01:00.504Z</time>
213 </trkpt>
214 <trkpt lat="51.403033570" lon="6.708963530">
215 <ele>43.154238555</ele>
216 <time>2009-06-15T17:01:02.514Z</time>
217 </trkpt>
218 <trkpt lat="51.403055650" lon="6.708922090">
219 <ele>42.786441997</ele>
220 <time>2009-06-15T17:01:04.541Z</time>
221 </trkpt>
222 <trkpt lat="51.403061100" lon="6.708901050">
223 <ele>42.594916521</ele>
224 <time>2009-06-15T17:01:05.546Z</time>
225 </trkpt>
226 <trkpt lat="51.403059950" lon="6.708874040">
227 <ele>42.405086065</ele>
228 <time>2009-06-15T17:01:06.551Z</time>
229 </trkpt>
230 <trkpt lat="51.403057040" lon="6.708839810">
231 <ele>42.211865829</ele>
232 <time>2009-06-15T17:01:07.636Z</time>
233 </trkpt>
234 <trkpt lat="51.403063910" lon="6.708783700">
235 <ele>41.850849087</ele>
236 <time>2009-06-15T17:01:09.597Z</time>
237 </trkpt>
238 <trkpt lat="51.403073350" lon="6.708727620">
239 <ele>41.472883063</ele>
240 <time>2009-06-15T17:01:11.699Z</time>
241 </trkpt>
242 <trkpt lat="51.403082910" lon="6.708628690">
243 <ele>40.874577797</ele>
244 <time>2009-06-15T17:01:14.665Z</time>
245 </trkpt>
246 <trkpt lat="51.403090490" lon="6.708530840">
247 <ele>40.320340431</ele>
248 <time>2009-06-15T17:01:17.717Z</time>
249 </trkpt>
250 <trkpt lat="51.403097090" lon="6.708503390">
251 <ele>40.147459127</ele>
252 <time>2009-06-15T17:01:18.790Z</time>
253 </trkpt>
254 <trkpt lat="51.403102770" lon="6.708476950">
255 <ele>40.000001422</ele>
256 <time>2009-06-15T17:01:19.745Z</time>
257 </trkpt>
258 <trkpt lat="51.403117340" lon="6.708408260">
259 <ele>39.776272402</ele>
260 <time>2009-06-15T17:01:22.843Z</time>
261 </trkpt>
262 <trkpt lat="51.403126140" lon="6.708376550">
263 <ele>39.708475792</ele>
264 <time>2009-06-15T17:01:23.799Z</time>
265 </trkpt>
266 <trkpt lat="51.403146280" lon="6.708292760">
267 <ele>39.510001246</ele>
268 <time>2009-06-15T17:01:26.914Z</time>
269 </trkpt>
270 <trkpt lat="51.403154770" lon="6.708201680">
271 <ele>39.286667887</ele>
272 <time>2009-06-15T17:01:29.920Z</time>
273 </trkpt>
274 <trkpt lat="51.403158200" lon="6.708138940">
275 <ele>39.120001348</ele>
276 <time>2009-06-15T17:01:31.904Z</time>
277 </trkpt>
278 <trkpt lat="51.403147770" lon="6.708098340">
279 <ele>39.033334732</ele>
280 <time>2009-06-15T17:01:32.909Z</time>
281 </trkpt>
282 <trkpt lat="51.403151560" lon="6.708008680">
283 <ele>38.765001424</ele>
284 <time>2009-06-15T17:01:35.938Z</time>
285 </trkpt>
286 <trkpt lat="51.403158120" lon="6.707974140">
287 <ele>38.675001399</ele>
288 <time>2009-06-15T17:01:36.982Z</time>
289 </trkpt>
290 <trkpt lat="51.403159170" lon="6.707876090">
291 <ele>38.449153965</ele>
292 <time>2009-06-15T17:01:40.016Z</time>
293 </trkpt>
294 <trkpt lat="51.403160480" lon="6.707817900">
295 <ele>38.250848802</ele>
296 <time>2009-06-15T17:01:42.010Z</time>
297 </trkpt>
298 <trkpt lat="51.403167080" lon="6.707758560">
299 <ele>38.076272609</ele>
300 <time>2009-06-15T17:01:44.034Z</time>
301 </trkpt>
302 <trkpt lat="51.403189950" lon="6.707661320">
303 <ele>37.853449723</ele>
304 <time>2009-06-15T17:01:47.077Z</time>
305 </trkpt>
306 <trkpt lat="51.403203370" lon="6.707625820">
307 <ele>37.768967069</ele>
308 <time>2009-06-15T17:01:48.167Z</time>
309 </trkpt>
310 <trkpt lat="51.403241590" lon="6.707507960">
311 <ele>37.539656804</ele>
312 <time>2009-06-15T17:01:51.197Z</time>
313 </trkpt>
314 <trkpt lat="51.403254330" lon="6.707438530">
315 <ele>37.400001526</ele>
316 <time>2009-06-15T17:01:53.247Z</time>
317 </trkpt>
318 <trkpt lat="51.403283000" lon="6.707349250">
319 <ele>37.237932534</ele>
320 <time>2009-06-15T17:01:56.322Z</time>
321 </trkpt>
322 <trkpt lat="51.403269780" lon="6.707280220">
323 <ele>37.125863700</ele>
324 <time>2009-06-15T17:01:58.272Z</time>
325 </trkpt>
326 <trkpt lat="51.403261880" lon="6.707230990">
327 <ele>37.051725848</ele>
328 <time>2009-06-15T17:01:59.369Z</time>
329 </trkpt>
330 <trkpt lat="51.403250170" lon="6.707188400">
331 <ele>36.968967175</ele>
332 <time>2009-06-15T17:02:00.325Z</time>
333 </trkpt>
334 <trkpt lat="51.403239660" lon="6.707097950">
335 <ele>36.860346432</ele>
336 <time>2009-06-15T17:02:01.329Z</time>
337 </trkpt>
338 <trkpt lat="51.403239930" lon="6.707055540">
339 <ele>36.736208554</ele>
340 <time>2009-06-15T17:02:02.335Z</time>
341 </trkpt>
342 <trkpt lat="51.403238030" lon="6.707006730">
343 <ele>36.600001631</ele>
344 <time>2009-06-15T17:02:03.391Z</time>
345 </trkpt>
346 <trkpt lat="51.403239010" lon="6.706935990">
347 <ele>36.315518741</ele>
348 <time>2009-06-15T17:02:05.352Z</time>
349 </trkpt>
350 <trkpt lat="51.403245400" lon="6.706896310">
351 <ele>36.170691128</ele>
352 <time>2009-06-15T17:02:06.371Z</time>
353 </trkpt>
354 <trkpt lat="51.403257380" lon="6.706832120">
355 <ele>35.872415214</ele>
356 <time>2009-06-15T17:02:08.427Z</time>
357 </trkpt>
358 <trkpt lat="51.403281020" lon="6.706736060">
359 <ele>35.503449539</ele>
360 <time>2009-06-15T17:02:11.454Z</time>
361 </trkpt>
362 <trkpt lat="51.403304110" lon="6.706676110">
363 <ele>35.287932297</ele>
364 <time>2009-06-15T17:02:13.464Z</time>
365 </trkpt>
366 <trkpt lat="51.403319830" lon="6.706653490">
367 <ele>35.184484021</ele>
368 <time>2009-06-15T17:02:14.543Z</time>
369 </trkpt>
370 <trkpt lat="51.403355080" lon="6.706600340">
371 <ele>34.986208159</ele>
372 <time>2009-06-15T17:02:16.504Z</time>
373 </trkpt>
374 <trkpt lat="51.403379180" lon="6.706546670">
375 <ele>34.775863384</ele>
376 <time>2009-06-15T17:02:18.597Z</time>
377 </trkpt>
378 <trkpt lat="51.403424120" lon="6.706457940">
379 <ele>34.443104843</ele>
380 <time>2009-06-15T17:02:21.628Z</time>
381 </trkpt>
382 <trkpt lat="51.403466620" lon="6.706346280">
383 <ele>33.953449644</ele>
384 <time>2009-06-15T17:02:25.679Z</time>
385 </trkpt>
386 <trkpt lat="51.403517940" lon="6.706238310">
387 <ele>33.422415109</ele>
388 <time>2009-06-15T17:02:29.735Z</time>
389 </trkpt>
390 <trkpt lat="51.403533920" lon="6.706170090">
391 <ele>33.165518530</ele>
392 <time>2009-06-15T17:02:31.694Z</time>
393 </trkpt>
394 <trkpt lat="51.403553510" lon="6.706104190">
395 <ele>32.948277046</ele>
396 <time>2009-06-15T17:02:33.709Z</time>
397 </trkpt>
398 <trkpt lat="51.403552640" lon="6.706022150">
399 <ele>32.750001184</ele>
400 <time>2009-06-15T17:02:35.720Z</time>
401 </trkpt>
402 <trkpt lat="51.403570270" lon="6.705952590">
403 <ele>32.584483837</ele>
404 <time>2009-06-15T17:02:37.752Z</time>
405 </trkpt>
406 <trkpt lat="51.403576920" lon="6.705921290">
407 <ele>32.574577332</ele>
408 <time>2009-06-15T17:02:38.758Z</time>
409 </trkpt>
410 <trkpt lat="51.403617350" lon="6.705833180">
411 <ele>32.372882520</ele>
412 <time>2009-06-15T17:02:41.779Z</time>
413 </trkpt>
414 <trkpt lat="51.403634470" lon="6.705805400">
415 <ele>32.296611333</ele>
416 <time>2009-06-15T17:02:42.784Z</time>
417 </trkpt>
418 <trkpt lat="51.403685150" lon="6.705736700">
419 <ele>32.066667811</ele>
420 <time>2009-06-15T17:02:45.812Z</time>
421 </trkpt>
422 <trkpt lat="51.403712200" lon="6.705678790">
423 <ele>31.785001119</ele>
424 <time>2009-06-15T17:02:47.895Z</time>
425 </trkpt>
426 <trkpt lat="51.403715460" lon="6.705646630">
427 <ele>31.625001017</ele>
428 <time>2009-06-15T17:02:48.851Z</time>
429 </trkpt>
430 <trkpt lat="51.403708220" lon="6.705595860">
431 <ele>31.450001017</ele>
432 <time>2009-06-15T17:02:49.857Z</time>
433 </trkpt>
434 <trkpt lat="51.403705870" lon="6.705557230">
435 <ele>31.258334351</ele>
436 <time>2009-06-15T17:02:50.861Z</time>
437 </trkpt>
438 <trkpt lat="51.403708460" lon="6.705444150">
439 <ele>30.608334351</ele>
440 <time>2009-06-15T17:02:53.887Z</time>
441 </trkpt>
442 <trkpt lat="51.403704390" lon="6.705318800">
443 <ele>29.865001043</ele>
444 <time>2009-06-15T17:02:56.912Z</time>
445 </trkpt>
446 <trkpt lat="51.403698080" lon="6.705280260">
447 <ele>29.625001017</ele>
448 <time>2009-06-15T17:02:57.917Z</time>
449 </trkpt>
450 <trkpt lat="51.403702320" lon="6.705213760">
451 <ele>29.178334300</ele>
452 <time>2009-06-15T17:02:59.946Z</time>
453 </trkpt>
454 <trkpt lat="51.403715690" lon="6.705156200">
455 <ele>28.790001043</ele>
456 <time>2009-06-15T17:03:01.957Z</time>
457 </trkpt>
458 <trkpt lat="51.403724550" lon="6.705126150">
459 <ele>28.618334325</ele>
460 <time>2009-06-15T17:03:03.018Z</time>
461 </trkpt>
462 <trkpt lat="51.403744800" lon="6.705062880">
463 <ele>28.278334427</ele>
464 <time>2009-06-15T17:03:04.978Z</time>
465 </trkpt>
466 <trkpt lat="51.403776300" lon="6.704975330">
467 <ele>27.776667913</ele>
468 <time>2009-06-15T17:03:08.106Z</time>
469 </trkpt>
470 <trkpt lat="51.403805840" lon="6.704876640">
471 <ele>27.238334529</ele>
472 <time>2009-06-15T17:03:11.129Z</time>
473 </trkpt>
474 <trkpt lat="51.403839240" lon="6.704780630">
475 <ele>26.688334529</ele>
476 <time>2009-06-15T17:03:14.217Z</time>
477 </trkpt>
478 <trkpt lat="51.403863470" lon="6.704726850">
479 <ele>26.313334529</ele>
480 <time>2009-06-15T17:03:16.176Z</time>
481 </trkpt>
482 <trkpt lat="51.403892530" lon="6.704681150">
483 <ele>25.933334605</ele>
484 <time>2009-06-15T17:03:18.251Z</time>
485 </trkpt>
486 <trkpt lat="51.403921080" lon="6.704682180">
487 <ele>25.743334579</ele>
488 <time>2009-06-15T17:03:19.206Z</time>
489 </trkpt>
490 <trkpt lat="51.403943760" lon="6.704674960">
491 <ele>25.303334554</ele>
492 <time>2009-06-15T17:03:22.343Z</time>
493 </trkpt>
494 <trkpt lat="51.403957930" lon="6.704681680">
495 <ele>25.191667938</ele>
496 <time>2009-06-15T17:03:23.292Z</time>
497 </trkpt>
498 <trkpt lat="51.403976150" lon="6.704682300">
499 <ele>25.038334529</ele>
500 <time>2009-06-15T17:03:25.364Z</time>
501 </trkpt>
502 <trkpt lat="51.404021320" lon="6.704703150">
503 <ele>24.966667938</ele>
504 <time>2009-06-15T17:03:27.324Z</time>
505 </trkpt>
506 <trkpt lat="51.404064710" lon="6.704732250">
507 <ele>24.936667887</ele>
508 <time>2009-06-15T17:03:29.405Z</time>
509 </trkpt>
510 <trkpt lat="51.404144420" lon="6.704786990">
511 <ele>24.920001348</ele>
512 <time>2009-06-15T17:03:33.440Z</time>
513 </trkpt>
514 <trkpt lat="51.404228950" lon="6.704847650">
515 <ele>24.873334757</ele>
516 <time>2009-06-15T17:03:37.421Z</time>
517 </trkpt>
518 <trkpt lat="51.404291390" lon="6.704894420">
519 <ele>24.815001424</ele>
520 <time>2009-06-15T17:03:40.459Z</time>
521 </trkpt>
522 <trkpt lat="51.404343640" lon="6.704940520">
523 <ele>24.778334936</ele>
524 <time>2009-06-15T17:03:43.473Z</time>
525 </trkpt>
526 <trkpt lat="51.404387350" lon="6.704979380">
527 <ele>24.790001678</ele>
528 <time>2009-06-15T17:03:45.498Z</time>
529 </trkpt>
530 <trkpt lat="51.404442120" lon="6.705035590">
531 <ele>24.933334986</ele>
532 <time>2009-06-15T17:03:48.522Z</time>
533 </trkpt>
534 <trkpt lat="51.404472580" lon="6.705065500">
535 <ele>25.095001729</ele>
536 <time>2009-06-15T17:03:50.532Z</time>
537 </trkpt>
538 <trkpt lat="51.404531510" lon="6.705115000">
539 <ele>25.436668396</ele>
540 <time>2009-06-15T17:03:53.565Z</time>
541 </trkpt>
542 <trkpt lat="51.404560810" lon="6.705146430">
543 <ele>25.720001602</ele>
544 <time>2009-06-15T17:03:55.640Z</time>
545 </trkpt>
546 <trkpt lat="51.404614190" lon="6.705187760">
547 <ele>26.218334961</ele>
548 <time>2009-06-15T17:03:58.643Z</time>
549 </trkpt>
550 <trkpt lat="51.404666480" lon="6.705232460">
551 <ele>26.760001628</ele>
552 <time>2009-06-15T17:04:01.692Z</time>
553 </trkpt>
554 <trkpt lat="51.404710290" lon="6.705282770">
555 <ele>27.360001500</ele>
556 <time>2009-06-15T17:04:04.710Z</time>
557 </trkpt>
558 <trkpt lat="51.404743430" lon="6.705337740">
559 <ele>28.016668065</ele>
560 <time>2009-06-15T17:04:07.739Z</time>
561 </trkpt>
562 <trkpt lat="51.404792650" lon="6.705389950">
563 <ele>28.750001399</ele>
564 <time>2009-06-15T17:04:10.850Z</time>
565 </trkpt>
566 <trkpt lat="51.404816360" lon="6.705416400">
567 <ele>29.016668065</ele>
568 <time>2009-06-15T17:04:11.804Z</time>
569 </trkpt>
570 <trkpt lat="51.404863210" lon="6.705448260">
571 <ele>29.563334783</ele>
572 <time>2009-06-15T17:04:13.884Z</time>
573 </trkpt>
574 <trkpt lat="51.404904580" lon="6.705477140">
575 <ele>30.123334757</ele>
576 <time>2009-06-15T17:04:15.836Z</time>
577 </trkpt>
578 <trkpt lat="51.404928400" lon="6.705497400">
579 <ele>30.411668142</ele>
580 <time>2009-06-15T17:04:16.841Z</time>
581 </trkpt>
582 <trkpt lat="51.404998020" lon="6.705543870">
583 <ele>31.268334834</ele>
584 <time>2009-06-15T17:04:19.894Z</time>
585 </trkpt>
586 <trkpt lat="51.405066510" lon="6.705582180">
587 <ele>32.003334808</ele>
588 <time>2009-06-15T17:04:23.053Z</time>
589 </trkpt>
590 <trkpt lat="51.405124380" lon="6.705617890">
591 <ele>32.565001424</ele>
592 <time>2009-06-15T17:04:26.143Z</time>
593 </trkpt>
594 <trkpt lat="51.405184370" lon="6.705654090">
595 <ele>33.013334783</ele>
596 <time>2009-06-15T17:04:29.179Z</time>
597 </trkpt>
598 <trkpt lat="51.405215010" lon="6.705672220">
599 <ele>33.263334783</ele>
600 <time>2009-06-15T17:04:31.126Z</time>
601 </trkpt>
602 <trkpt lat="51.405253470" lon="6.705700230">
603 <ele>33.490001551</ele>
604 <time>2009-06-15T17:04:33.217Z</time>
605 </trkpt>
606 <trkpt lat="51.405302330" lon="6.705731200">
607 <ele>33.701668040</ele>
608 <time>2009-06-15T17:04:35.177Z</time>
609 </trkpt>
610 <trkpt lat="51.405341450" lon="6.705752980">
611 <ele>33.895001348</ele>
612 <time>2009-06-15T17:04:37.264Z</time>
613 </trkpt>
614 <trkpt lat="51.405427010" lon="6.705814160">
615 <ele>34.261668142</ele>
616 <time>2009-06-15T17:04:41.242Z</time>
617 </trkpt>
618 <trkpt lat="51.405465780" lon="6.705827000">
619 <ele>34.428334681</ele>
620 <time>2009-06-15T17:04:43.252Z</time>
621 </trkpt>
622 <trkpt lat="51.405477880" lon="6.705836950">
623 <ele>34.513334656</ele>
624 <time>2009-06-15T17:04:44.361Z</time>
625 </trkpt>
626 <trkpt lat="51.405526850" lon="6.705846500">
627 <ele>34.685001246</ele>
628 <time>2009-06-15T17:04:46.321Z</time>
629 </trkpt>
630 <trkpt lat="51.405549870" lon="6.705855880">
631 <ele>34.766667938</ele>
632 <time>2009-06-15T17:04:47.324Z</time>
633 </trkpt>
634 <trkpt lat="51.405598720" lon="6.705895910">
635 <ele>34.926668040</ele>
636 <time>2009-06-15T17:04:49.364Z</time>
637 </trkpt>
638 <trkpt lat="51.405645340" lon="6.705943380">
639 <ele>35.076668040</ele>
640 <time>2009-06-15T17:04:51.407Z</time>
641 </trkpt>
642 <trkpt lat="51.405750170" lon="6.706037400">
643 <ele>35.305001450</ele>
644 <time>2009-06-15T17:04:55.480Z</time>
645 </trkpt>
646 <trkpt lat="51.405847790" lon="6.706124970">
647 <ele>35.430001450</ele>
648 <time>2009-06-15T17:04:59.523Z</time>
649 </trkpt>
650 <trkpt lat="51.405868180" lon="6.706130480">
651 <ele>35.441668065</ele>
652 <time>2009-06-15T17:05:00.478Z</time>
653 </trkpt>
654 <trkpt lat="51.405906630" lon="6.706145890">
655 <ele>35.456668091</ele>
656 <time>2009-06-15T17:05:02.489Z</time>
657 </trkpt>
658 <trkpt lat="51.405960900" lon="6.706149900">
659 <ele>35.481668091</ele>
660 <time>2009-06-15T17:05:05.537Z</time>
661 </trkpt>
662 <trkpt lat="51.405995730" lon="6.706151710">
663 <ele>35.513334783</ele>
664 <time>2009-06-15T17:05:07.575Z</time>
665 </trkpt>
666 <trkpt lat="51.406044340" lon="6.706157650">
667 <ele>35.541668065</ele>
668 <time>2009-06-15T17:05:09.585Z</time>
669 </trkpt>
670 <trkpt lat="51.406070670" lon="6.706158990">
671 <ele>35.551668167</ele>
672 <time>2009-06-15T17:05:10.662Z</time>
673 </trkpt>
674 <trkpt lat="51.406114630" lon="6.706174950">
675 <ele>35.548335012</ele>
676 <time>2009-06-15T17:05:12.622Z</time>
677 </trkpt>
678 <trkpt lat="51.406136350" lon="6.706197230">
679 <ele>35.541668320</ele>
680 <time>2009-06-15T17:05:13.663Z</time>
681 </trkpt>
682 <trkpt lat="51.406152620" lon="6.706216230">
683 <ele>35.535001755</ele>
684 <time>2009-06-15T17:05:14.762Z</time>
685 </trkpt>
686 <trkpt lat="51.406162490" lon="6.706259830">
687 <ele>35.515001806</ele>
688 <time>2009-06-15T17:05:15.718Z</time>
689 </trkpt>
690 <trkpt lat="51.406165260" lon="6.706300140">
691 <ele>35.486668396</ele>
692 <time>2009-06-15T17:05:16.723Z</time>
693 </trkpt>
694 <trkpt lat="51.406163110" lon="6.706348850">
695 <ele>35.436668396</ele>
696 <time>2009-06-15T17:05:17.804Z</time>
697 </trkpt>
698 <trkpt lat="51.406157520" lon="6.706383940">
699 <ele>35.378335063</ele>
700 <time>2009-06-15T17:05:18.760Z</time>
701 </trkpt>
702 <trkpt lat="51.406160090" lon="6.706515200">
703 <ele>35.105001577</ele>
704 <time>2009-06-15T17:05:21.803Z</time>
705 </trkpt>
706 <trkpt lat="51.406150170" lon="6.706599480">
707 <ele>34.816668320</ele>
708 <time>2009-06-15T17:05:23.802Z</time>
709 </trkpt>
710 <trkpt lat="51.406140090" lon="6.706695490">
711 <ele>34.315001678</ele>
712 <time>2009-06-15T17:05:26.846Z</time>
713 </trkpt>
714 <trkpt lat="51.406136500" lon="6.706793370">
715 <ele>33.788335037</ele>
716 <time>2009-06-15T17:05:29.909Z</time>
717 </trkpt>
718 <trkpt lat="51.406128010" lon="6.706885120">
719 <ele>33.278334936</ele>
720 <time>2009-06-15T17:05:33.021Z</time>
721 </trkpt>
722 <trkpt lat="51.406119060" lon="6.707015250">
723 <ele>32.635001755</ele>
724 <time>2009-06-15T17:05:37.078Z</time>
725 </trkpt>
726 <trkpt lat="51.406109490" lon="6.707096920">
727 <ele>32.151668167</ele>
728 <time>2009-06-15T17:05:40.130Z</time>
729 </trkpt>
730 <trkpt lat="51.406108910" lon="6.707184390">
731 <ele>31.693334961</ele>
732 <time>2009-06-15T17:05:43.154Z</time>
733 </trkpt>
734 <trkpt lat="51.406110360" lon="6.707214530">
735 <ele>31.543334961</ele>
736 <time>2009-06-15T17:05:44.273Z</time>
737 </trkpt>
738 <trkpt lat="51.406109460" lon="6.707236950">
739 <ele>31.391668320</ele>
740 <time>2009-06-15T17:05:45.211Z</time>
741 </trkpt>
742 <trkpt lat="51.406119320" lon="6.707288180">
743 <ele>31.080001577</ele>
744 <time>2009-06-15T17:05:47.221Z</time>
745 </trkpt>
746 <trkpt lat="51.406136350" lon="6.707303040">
747 <ele>30.926668294</ele>
748 <time>2009-06-15T17:05:48.332Z</time>
749 </trkpt>
750 <trkpt lat="51.406159740" lon="6.707312830">
751 <ele>30.781668218</ele>
752 <time>2009-06-15T17:05:49.272Z</time>
753 </trkpt>
754 <trkpt lat="51.406174910" lon="6.707322440">
755 <ele>30.631668218</ele>
756 <time>2009-06-15T17:05:50.277Z</time>
757 </trkpt>
758 <trkpt lat="51.406189740" lon="6.707335480">
759 <ele>30.488334783</ele>
760 <time>2009-06-15T17:05:51.282Z</time>
761 </trkpt>
762 <trkpt lat="51.406239170" lon="6.707346820">
763 <ele>30.206668091</ele>
764 <time>2009-06-15T17:05:53.322Z</time>
765 </trkpt>
766 <trkpt lat="51.406262540" lon="6.707350240">
767 <ele>30.075001399</ele>
768 <time>2009-06-15T17:05:54.327Z</time>
769 </trkpt>
770 <trkpt lat="51.406272880" lon="6.707333730">
771 <ele>29.941668065</ele>
772 <time>2009-06-15T17:05:55.370Z</time>
773 </trkpt>
774 <trkpt lat="51.406289570" lon="6.707325010">
775 <ele>29.808334732</ele>
776 <time>2009-06-15T17:05:56.355Z</time>
777 </trkpt>
778 <trkpt lat="51.406311030" lon="6.707312980">
779 <ele>29.681668091</ele>
780 <time>2009-06-15T17:05:57.360Z</time>
781 </trkpt>
782 <trkpt lat="51.406334080" lon="6.707300620">
783 <ele>29.556668091</ele>
784 <time>2009-06-15T17:05:58.365Z</time>
785 </trkpt>
786 <trkpt lat="51.406350260" lon="6.707281450">
787 <ele>29.440001424</ele>
788 <time>2009-06-15T17:05:59.440Z</time>
789 </trkpt>
790 <trkpt lat="51.406374090" lon="6.707260170">
791 <ele>29.323334757</ele>
792 <time>2009-06-15T17:06:00.396Z</time>
793 </trkpt>
794 <trkpt lat="51.406416170" lon="6.707236980">
795 <ele>29.088334783</ele>
796 <time>2009-06-15T17:06:02.406Z</time>
797 </trkpt>
798 <trkpt lat="51.406439510" lon="6.707229190">
799 <ele>28.960001500</ele>
800 <time>2009-06-15T17:06:03.462Z</time>
801 </trkpt>
802 <trkpt lat="51.406455660" lon="6.707225690">
803 <ele>28.831668218</ele>
804 <time>2009-06-15T17:06:04.417Z</time>
805 </trkpt>
806 <trkpt lat="51.406465610" lon="6.707224380">
807 <ele>28.695001602</ele>
808 <time>2009-06-15T17:06:05.421Z</time>
809 </trkpt>
810 <trkpt lat="51.406494900" lon="6.707228310">
811 <ele>28.400001653</ele>
812 <time>2009-06-15T17:06:07.452Z</time>
813 </trkpt>
814 <trkpt lat="51.406551010" lon="6.707226750">
815 <ele>27.921668371</ele>
816 <time>2009-06-15T17:06:10.538Z</time>
817 </trkpt>
818 <trkpt lat="51.406574600" lon="6.707224220">
819 <ele>27.576668294</ele>
820 <time>2009-06-15T17:06:12.499Z</time>
821 </trkpt>
822 <trkpt lat="51.406610000" lon="6.707206960">
823 <ele>27.225001653</ele>
824 <time>2009-06-15T17:06:14.583Z</time>
825 </trkpt>
826 <trkpt lat="51.406633650" lon="6.707186990">
827 <ele>27.036668269</ele>
828 <time>2009-06-15T17:06:15.538Z</time>
829 </trkpt>
830 <trkpt lat="51.406712340" lon="6.707154800">
831 <ele>26.520001475</ele>
832 <time>2009-06-15T17:06:18.586Z</time>
833 </trkpt>
834 <trkpt lat="51.406788430" lon="6.707134600">
835 <ele>26.121668116</ele>
836 <time>2009-06-15T17:06:21.620Z</time>
837 </trkpt>
838 <trkpt lat="51.406827850" lon="6.707137460">
839 <ele>25.976668167</ele>
840 <time>2009-06-15T17:06:23.657Z</time>
841 </trkpt>
842 <trkpt lat="51.406889750" lon="6.707148800">
843 <ele>25.868334961</ele>
844 <time>2009-06-15T17:06:26.775Z</time>
845 </trkpt>
846 <trkpt lat="51.406964390" lon="6.707171770">
847 <ele>25.768334834</ele>
848 <time>2009-06-15T17:06:29.806Z</time>
849 </trkpt>
850 <trkpt lat="51.407030230" lon="6.707197730">
851 <ele>25.655001577</ele>
852 <time>2009-06-15T17:06:32.832Z</time>
853 </trkpt>
854 <trkpt lat="51.407073020" lon="6.707189970">
855 <ele>25.581668218</ele>
856 <time>2009-06-15T17:06:34.936Z</time>
857 </trkpt>
858 <trkpt lat="51.407116530" lon="6.707193340">
859 <ele>25.480001450</ele>
860 <time>2009-06-15T17:06:36.896Z</time>
861 </trkpt>
862 <trkpt lat="51.407147650" lon="6.707186370">
863 <ele>25.385001500</ele>
864 <time>2009-06-15T17:06:38.980Z</time>
865 </trkpt>
866 <trkpt lat="51.407223800" lon="6.707190120">
867 <ele>25.130001577</ele>
868 <time>2009-06-15T17:06:42.961Z</time>
869 </trkpt>
870 <trkpt lat="51.407267980" lon="6.707186690">
871 <ele>24.903334936</ele>
872 <time>2009-06-15T17:06:46.058Z</time>
873 </trkpt>
874 <trkpt lat="51.407277310" lon="6.707188890">
875 <ele>24.830001577</ele>
876 <time>2009-06-15T17:06:47.013Z</time>
877 </trkpt>
878 <trkpt lat="51.407311580" lon="6.707192910">
879 <ele>24.678334808</ele>
880 <time>2009-06-15T17:06:49.023Z</time>
881 </trkpt>
882 <trkpt lat="51.407370480" lon="6.707196910">
883 <ele>24.438334910</ele>
884 <time>2009-06-15T17:06:52.135Z</time>
885 </trkpt>
886 <trkpt lat="51.407402080" lon="6.707196270">
887 <ele>24.355001577</ele>
888 <time>2009-06-15T17:06:53.166Z</time>
889 </trkpt>
890 <trkpt lat="51.407490620" lon="6.707208740">
891 <ele>24.096668243</ele>
892 <time>2009-06-15T17:06:56.163Z</time>
893 </trkpt>
894 <trkpt lat="51.407549240" lon="6.707216950">
895 <ele>23.876668167</ele>
896 <time>2009-06-15T17:06:59.200Z</time>
897 </trkpt>
898 <trkpt lat="51.407596680" lon="6.707213500">
899 <ele>23.651668167</ele>
900 <time>2009-06-15T17:07:02.248Z</time>
901 </trkpt>
902 <trkpt lat="51.407625090" lon="6.707209950">
903 <ele>23.505001450</ele>
904 <time>2009-06-15T17:07:04.259Z</time>
905 </trkpt>
906 <trkpt lat="51.407693500" lon="6.707215710">
907 <ele>23.288334783</ele>
908 <time>2009-06-15T17:07:07.305Z</time>
909 </trkpt>
910 <trkpt lat="51.407768240" lon="6.707219490">
911 <ele>23.118334707</ele>
912 <time>2009-06-15T17:07:09.337Z</time>
913 </trkpt>
914 <trkpt lat="51.407792740" lon="6.707226080">
915 <ele>23.045001348</ele>
916 <time>2009-06-15T17:07:10.342Z</time>
917 </trkpt>
918 <trkpt lat="51.407840050" lon="6.707222010">
919 <ele>22.925001399</ele>
920 <time>2009-06-15T17:07:12.432Z</time>
921 </trkpt>
922 <trkpt lat="51.407922140" lon="6.707221170">
923 <ele>22.728334681</ele>
924 <time>2009-06-15T17:07:16.498Z</time>
925 </trkpt>
926 <trkpt lat="51.407939260" lon="6.707216540">
927 <ele>22.696667989</ele>
928 <time>2009-06-15T17:07:17.453Z</time>
929 </trkpt>
930 <trkpt lat="51.407993720" lon="6.707210020">
931 <ele>22.643334707</ele>
932 <time>2009-06-15T17:07:20.500Z</time>
933 </trkpt>
934 <trkpt lat="51.408060640" lon="6.707200340">
935 <ele>22.615001424</ele>
936 <time>2009-06-15T17:07:23.606Z</time>
937 </trkpt>
938 <trkpt lat="51.408087210" lon="6.707204280">
939 <ele>22.616668065</ele>
940 <time>2009-06-15T17:07:24.561Z</time>
941 </trkpt>
942 <trkpt lat="51.408128720" lon="6.707206360">
943 <ele>22.663334656</ele>
944 <time>2009-06-15T17:07:26.571Z</time>
945 </trkpt>
946 <trkpt lat="51.408164700" lon="6.707195050">
947 <ele>22.731667964</ele>
948 <time>2009-06-15T17:07:28.625Z</time>
949 </trkpt>
950 <trkpt lat="51.408185480" lon="6.707185030">
951 <ele>22.771667989</ele>
952 <time>2009-06-15T17:07:29.630Z</time>
953 </trkpt>
954 <trkpt lat="51.408221710" lon="6.707188780">
955 <ele>22.908334732</ele>
956 <time>2009-06-15T17:07:32.670Z</time>
957 </trkpt>
958 <trkpt lat="51.408234720" lon="6.707193180">
959 <ele>22.945001348</ele>
960 <time>2009-06-15T17:07:33.676Z</time>
961 </trkpt>
962 <trkpt lat="51.408269150" lon="6.707203730">
963 <ele>23.026668040</ele>
964 <time>2009-06-15T17:07:35.730Z</time>
965 </trkpt>
966 <trkpt lat="51.408331920" lon="6.707204120">
967 <ele>23.185001500</ele>
968 <time>2009-06-15T17:07:38.828Z</time>
969 </trkpt>
970 <trkpt lat="51.408367560" lon="6.707201580">
971 <ele>23.288334783</ele>
972 <time>2009-06-15T17:07:40.788Z</time>
973 </trkpt>
974 <trkpt lat="51.408409220" lon="6.707204620">
975 <ele>23.451668167</ele>
976 <time>2009-06-15T17:07:43.841Z</time>
977 </trkpt>
978 <trkpt lat="51.408449920" lon="6.707201780">
979 <ele>23.615001297</ele>
980 <time>2009-06-15T17:07:46.883Z</time>
981 </trkpt>
982 <trkpt lat="51.408525330" lon="6.707197950">
983 <ele>23.771668116</ele>
984 <time>2009-06-15T17:07:49.913Z</time>
985 </trkpt>
986 <trkpt lat="51.408551120" lon="6.707186370">
987 <ele>23.815001551</ele>
988 <time>2009-06-15T17:07:50.918Z</time>
989 </trkpt>
990 <trkpt lat="51.408600340" lon="6.707181790">
991 <ele>23.918334834</ele>
992 <time>2009-06-15T17:07:53.964Z</time>
993 </trkpt>
994 <trkpt lat="51.408621810" lon="6.707182980">
995 <ele>23.958334859</ele>
996 <time>2009-06-15T17:07:54.969Z</time>
997 </trkpt>
998 <trkpt lat="51.408691710" lon="6.707202490">
999 <ele>24.035001628</ele>
1000 <time>2009-06-15T17:07:58.000Z</time>
1001 </trkpt>
1002 <trkpt lat="51.408741540" lon="6.707202560">
1003 <ele>24.075001653</ele>
1004 <time>2009-06-15T17:08:01.023Z</time>
1005 </trkpt>
1006 <trkpt lat="51.408819260" lon="6.707212370">
1007 <ele>24.121668371</ele>
1008 <time>2009-06-15T17:08:04.156Z</time>
1009 </trkpt>
1010 <trkpt lat="51.408895560" lon="6.707225710">
1011 <ele>24.189832138</ele>
1012 <time>2009-06-15T17:08:07.329Z</time>
1013 </trkpt>
1014 <trkpt lat="51.408977120" lon="6.707238280">
1015 <ele>24.205086401</ele>
1016 <time>2009-06-15T17:08:10.368Z</time>
1017 </trkpt>
1018 <trkpt lat="51.408995530" lon="6.707237370">
1019 <ele>24.201696493</ele>
1020 <time>2009-06-15T17:08:11.456Z</time>
1021 </trkpt>
1022 <trkpt lat="51.409040930" lon="6.707222120">
1023 <ele>24.174578004</ele>
1024 <time>2009-06-15T17:08:13.415Z</time>
1025 </trkpt>
1026 <trkpt lat="51.409063880" lon="6.707214240">
1027 <ele>24.145764367</ele>
1028 <time>2009-06-15T17:08:14.419Z</time>
1029 </trkpt>
1030 <trkpt lat="51.409125080" lon="6.707210470">
1031 <ele>24.000001526</ele>
1032 <time>2009-06-15T17:08:16.442Z</time>
1033 </trkpt>
1034 <trkpt lat="51.409145060" lon="6.707200110">
1035 <ele>23.916668129</ele>
1036 <time>2009-06-15T17:08:17.447Z</time>
1037 </trkpt>
1038 <trkpt lat="51.409211500" lon="6.707194410">
1039 <ele>23.657628657</ele>
1040 <time>2009-06-15T17:08:20.519Z</time>
1041 </trkpt>
1042 <trkpt lat="51.409261920" lon="6.707199440">
1043 <ele>23.455933716</ele>
1044 <time>2009-06-15T17:08:22.604Z</time>
1045 </trkpt>
1046 <trkpt lat="51.409282000" lon="6.707203420">
1047 <ele>23.343334834</ele>
1048 <time>2009-06-15T17:08:23.558Z</time>
1049 </trkpt>
1050 <trkpt lat="51.409336410" lon="6.707193340">
1051 <ele>22.925425255</ele>
1052 <time>2009-06-15T17:08:26.655Z</time>
1053 </trkpt>
1054 <trkpt lat="51.409409390" lon="6.707188610">
1055 <ele>22.472882934</ele>
1056 <time>2009-06-15T17:08:29.675Z</time>
1057 </trkpt>
1058 <trkpt lat="51.409464750" lon="6.707181800">
1059 <ele>22.015255815</ele>
1060 <time>2009-06-15T17:08:32.681Z</time>
1061 </trkpt>
1062 <trkpt lat="51.409518880" lon="6.707170240">
1063 <ele>21.566103273</ele>
1064 <time>2009-06-15T17:08:35.732Z</time>
1065 </trkpt>
1066 <trkpt lat="51.409579420" lon="6.707164690">
1067 <ele>21.083052425</ele>
1068 <time>2009-06-15T17:08:38.829Z</time>
1069 </trkpt>
1070 <trkpt lat="51.409610710" lon="6.707167990">
1071 <ele>20.774577901</ele>
1072 <time>2009-06-15T17:08:40.927Z</time>
1073 </trkpt>
1074 <trkpt lat="51.409682730" lon="6.707170760">
1075 <ele>20.184747340</ele>
1076 <time>2009-06-15T17:08:44.961Z</time>
1077 </trkpt>
1078 <trkpt lat="51.409771860" lon="6.707183220">
1079 <ele>19.730510065</ele>
1080 <time>2009-06-15T17:08:47.992Z</time>
1081 </trkpt>
1082 <trkpt lat="51.409895300" lon="6.707200350">
1083 <ele>19.155933768</ele>
1084 <time>2009-06-15T17:08:52.029Z</time>
1085 </trkpt>
1086 <trkpt lat="51.409975850" lon="6.707212260">
1087 <ele>18.547459101</ele>
1088 <time>2009-06-15T17:08:56.107Z</time>
1089 </trkpt>
1090 <trkpt lat="51.410019250" lon="6.707218990">
1091 <ele>18.132204735</ele>
1092 <time>2009-06-15T17:08:59.156Z</time>
1093 </trkpt>
1094 <trkpt lat="51.410070510" lon="6.707236530">
1095 <ele>17.749153913</ele>
1096 <time>2009-06-15T17:09:02.122Z</time>
1097 </trkpt>
1098 <trkpt lat="51.410136750" lon="6.707252080">
1099 <ele>17.398306313</ele>
1100 <time>2009-06-15T17:09:05.166Z</time>
1101 </trkpt>
1102 <trkpt lat="51.410223620" lon="6.707275330">
1103 <ele>17.270001221</ele>
1104 <time>2009-06-15T17:09:07.305Z</time>
1105 </trkpt>
1106 <trkpt lat="51.410288290" lon="6.707276800">
1107 <ele>17.048334503</ele>
1108 <time>2009-06-15T17:09:09.261Z</time>
1109 </trkpt>
1110 <trkpt lat="51.410330130" lon="6.707262940">
1111 <ele>16.831667837</ele>
1112 <time>2009-06-15T17:09:11.321Z</time>
1113 </trkpt>
1114 <trkpt lat="51.410398080" lon="6.707259550">
1115 <ele>16.608334478</ele>
1116 <time>2009-06-15T17:09:13.332Z</time>
1117 </trkpt>
1118 <trkpt lat="51.410435920" lon="6.707260830">
1119 <ele>16.393334516</ele>
1120 <time>2009-06-15T17:09:15.384Z</time>
1121 </trkpt>
1122 <trkpt lat="51.410493050" lon="6.707254270">
1123 <ele>16.228814788</ele>
1124 <time>2009-06-15T17:09:17.462Z</time>
1125 </trkpt>
1126 <trkpt lat="51.410555120" lon="6.707240050">
1127 <ele>16.083334541</ele>
1128 <time>2009-06-15T17:09:20.426Z</time>
1129 </trkpt>
1130 <trkpt lat="51.410609110" lon="6.707234620">
1131 <ele>15.898334440</ele>
1132 <time>2009-06-15T17:09:23.479Z</time>
1133 </trkpt>
1134 <trkpt lat="51.410650850" lon="6.707232100">
1135 <ele>15.764407853</ele>
1136 <time>2009-06-15T17:09:25.630Z</time>
1137 </trkpt>
1138 <trkpt lat="51.410714370" lon="6.707248160">
1139 <ele>15.625001081</ele>
1140 <time>2009-06-15T17:09:27.590Z</time>
1141 </trkpt>
1142 <trkpt lat="51.410789060" lon="6.707257300">
1143 <ele>15.318334389</ele>
1144 <time>2009-06-15T17:09:30.648Z</time>
1145 </trkpt>
1146 <trkpt lat="51.410822360" lon="6.707252440">
1147 <ele>15.040678897</ele>
1148 <time>2009-06-15T17:09:32.725Z</time>
1149 </trkpt>
1150 <trkpt lat="51.410884940" lon="6.707261830">
1151 <ele>14.670000966</ele>
1152 <time>2009-06-15T17:09:35.691Z</time>
1153 </trkpt>
1154 <trkpt lat="51.410915110" lon="6.707257920">
1155 <ele>14.386667569</ele>
1156 <time>2009-06-15T17:09:37.750Z</time>
1157 </trkpt>
1158 <trkpt lat="51.410933500" lon="6.707243900">
1159 <ele>14.245000839</ele>
1160 <time>2009-06-15T17:09:38.755Z</time>
1161 </trkpt>
1162 <trkpt lat="51.410993140" lon="6.707244500">
1163 <ele>13.815000788</ele>
1164 <time>2009-06-15T17:09:41.829Z</time>
1165 </trkpt>
1166 <trkpt lat="51.411008660" lon="6.707242600">
1167 <ele>13.668334134</ele>
1168 <time>2009-06-15T17:09:42.830Z</time>
1169 </trkpt>
1170 <trkpt lat="51.411032430" lon="6.707234840">
1171 <ele>13.449153383</ele>
1172 <time>2009-06-15T17:09:43.899Z</time>
1173 </trkpt>
1174 <trkpt lat="51.411092440" lon="6.707238860">
1175 <ele>13.226667531</ele>
1176 <time>2009-06-15T17:09:45.876Z</time>
1177 </trkpt>
1178 <trkpt lat="51.411116380" lon="6.707248360">
1179 <ele>13.090000852</ele>
1180 <time>2009-06-15T17:09:46.881Z</time>
1181 </trkpt>
1182 <trkpt lat="51.411156490" lon="6.707242090">
1183 <ele>12.843334198</ele>
1184 <time>2009-06-15T17:09:48.939Z</time>
1185 </trkpt>
1186 <trkpt lat="51.411222630" lon="6.707251840">
1187 <ele>12.391526174</ele>
1188 <time>2009-06-15T17:09:52.041Z</time>
1189 </trkpt>
1190 <trkpt lat="51.411255420" lon="6.707258740">
1191 <ele>12.274576995</ele>
1192 <time>2009-06-15T17:09:52.996Z</time>
1193 </trkpt>
1194 <trkpt lat="51.411329920" lon="6.707284970">
1195 <ele>12.021667417</ele>
1196 <time>2009-06-15T17:09:56.099Z</time>
1197 </trkpt>
1198 <trkpt lat="51.411417110" lon="6.707317590">
1199 <ele>11.695000776</ele>
1200 <time>2009-06-15T17:09:59.142Z</time>
1201 </trkpt>
1202 <trkpt lat="51.411461240" lon="6.707329600">
1203 <ele>11.473334058</ele>
1204 <time>2009-06-15T17:10:01.102Z</time>
1205 </trkpt>
1206 <trkpt lat="51.411524670" lon="6.707346120">
1207 <ele>11.261667379</ele>
1208 <time>2009-06-15T17:10:03.163Z</time>
1209 </trkpt>
1210 <trkpt lat="51.411626810" lon="6.707368880">
1211 <ele>10.985000738</ele>
1212 <time>2009-06-15T17:10:06.190Z</time>
1213 </trkpt>
1214 <trkpt lat="51.411690570" lon="6.707384410">
1215 <ele>10.723334122</ele>
1216 <time>2009-06-15T17:10:09.183Z</time>
1217 </trkpt>
1218 <trkpt lat="51.411754630" lon="6.707390000">
1219 <ele>10.505000814</ele>
1220 <time>2009-06-15T17:10:12.238Z</time>
1221 </trkpt>
1222 <trkpt lat="51.411785180" lon="6.707406230">
1223 <ele>10.360000865</ele>
1224 <time>2009-06-15T17:10:14.355Z</time>
1225 </trkpt>
1226 <trkpt lat="51.411849660" lon="6.707420450">
1227 <ele>10.148334185</ele>
1228 <time>2009-06-15T17:10:17.325Z</time>
1229 </trkpt>
1230 <trkpt lat="51.411910320" lon="6.707441290">
1231 <ele>9.921667544</ele>
1232 <time>2009-06-15T17:10:20.388Z</time>
1233 </trkpt>
1234 <trkpt lat="51.411969830" lon="6.707450780">
1235 <ele>9.730000877</ele>
1236 <time>2009-06-15T17:10:23.416Z</time>
1237 </trkpt>
1238 <trkpt lat="51.412029500" lon="6.707458670">
1239 <ele>9.533334223</ele>
1240 <time>2009-06-15T17:10:26.460Z</time>
1241 </trkpt>
1242 <trkpt lat="51.412095030" lon="6.707478820">
1243 <ele>9.416667493</ele>
1244 <time>2009-06-15T17:10:29.574Z</time>
1245 </trkpt>
1246 <trkpt lat="51.412132860" lon="6.707500330">
1247 <ele>9.373334185</ele>
1248 <time>2009-06-15T17:10:31.534Z</time>
1249 </trkpt>
1250 <trkpt lat="51.412172800" lon="6.707498680">
1251 <ele>9.341667493</ele>
1252 <time>2009-06-15T17:10:33.564Z</time>
1253 </trkpt>
1254 <trkpt lat="51.412194170" lon="6.707496490">
1255 <ele>9.333334160</ele>
1256 <time>2009-06-15T17:10:34.570Z</time>
1257 </trkpt>
1258 <trkpt lat="51.412208770" lon="6.707481870">
1259 <ele>9.333334160</ele>
1260 <time>2009-06-15T17:10:35.574Z</time>
1261 </trkpt>
1262 <trkpt lat="51.412228030" lon="6.707467330">
1263 <ele>9.343334134</ele>
1264 <time>2009-06-15T17:10:36.655Z</time>
1265 </trkpt>
1266 <trkpt lat="51.412238590" lon="6.707443750">
1267 <ele>9.353334109</ele>
1268 <time>2009-06-15T17:10:37.609Z</time>
1269 </trkpt>
1270 <trkpt lat="51.412258630" lon="6.707423160">
1271 <ele>9.370000776</ele>
1272 <time>2009-06-15T17:10:38.614Z</time>
1273 </trkpt>
1274 <trkpt lat="51.412282550" lon="6.707376260">
1275 <ele>9.408334096</ele>
1276 <time>2009-06-15T17:10:40.704Z</time>
1277 </trkpt>
1278 <trkpt lat="51.412298130" lon="6.707322210">
1279 <ele>9.455000814</ele>
1280 <time>2009-06-15T17:10:42.749Z</time>
1281 </trkpt>
1282 <trkpt lat="51.412339530" lon="6.707255570">
1283 <ele>9.536667379</ele>
1284 <time>2009-06-15T17:10:45.830Z</time>
1285 </trkpt>
1286 <trkpt lat="51.412361240" lon="6.707181870">
1287 <ele>9.580000687</ele>
1288 <time>2009-06-15T17:10:48.874Z</time>
1289 </trkpt>
1290 <trkpt lat="51.412381520" lon="6.707136820">
1291 <ele>9.606667328</ele>
1292 <time>2009-06-15T17:10:50.882Z</time>
1293 </trkpt>
1294 <trkpt lat="51.412413020" lon="6.707031800">
1295 <ele>9.630000750</ele>
1296 <time>2009-06-15T17:10:53.934Z</time>
1297 </trkpt>
1298 <trkpt lat="51.412436560" lon="6.706941970">
1299 <ele>9.615000788</ele>
1300 <time>2009-06-15T17:10:56.970Z</time>
1301 </trkpt>
1302 <trkpt lat="51.412455250" lon="6.706917240">
1303 <ele>9.623334122</ele>
1304 <time>2009-06-15T17:10:57.974Z</time>
1305 </trkpt>
1306 <trkpt lat="51.412483150" lon="6.706845160">
1307 <ele>9.650000763</ele>
1308 <time>2009-06-15T17:11:01.038Z</time>
1309 </trkpt>
1310 <trkpt lat="51.412488240" lon="6.706817760">
1311 <ele>9.658334096</ele>
1312 <time>2009-06-15T17:11:02.042Z</time>
1313 </trkpt>
1314 <trkpt lat="51.412498170" lon="6.706780390">
1315 <ele>9.655000814</ele>
1316 <time>2009-06-15T17:11:04.101Z</time>
1317 </trkpt>
1318 <trkpt lat="51.412516450" lon="6.706726060">
1319 <ele>9.580000814</ele>
1320 <time>2009-06-15T17:11:07.139Z</time>
1321 </trkpt>
1322 <trkpt lat="51.412534570" lon="6.706643060">
1323 <ele>9.456667455</ele>
1324 <time>2009-06-15T17:11:10.241Z</time>
1325 </trkpt>
1326 <trkpt lat="51.412565050" lon="6.706516970">
1327 <ele>9.220000776</ele>
1328 <time>2009-06-15T17:11:14.260Z</time>
1329 </trkpt>
1330 <trkpt lat="51.412568370" lon="6.706486860">
1331 <ele>9.156667391</ele>
1332 <time>2009-06-15T17:11:15.216Z</time>
1333 </trkpt>
1334 <trkpt lat="51.412573570" lon="6.706433870">
1335 <ele>9.030000750</ele>
1336 <time>2009-06-15T17:11:17.276Z</time>
1337 </trkpt>
1338 <trkpt lat="51.412590310" lon="6.706349810">
1339 <ele>8.833334096</ele>
1340 <time>2009-06-15T17:11:20.266Z</time>
1341 </trkpt>
1342 <trkpt lat="51.412603660" lon="6.706296260">
1343 <ele>8.760000738</ele>
1344 <time>2009-06-15T17:11:21.381Z</time>
1345 </trkpt>
1346 <trkpt lat="51.412612470" lon="6.706241010">
1347 <ele>8.611667442</ele>
1348 <time>2009-06-15T17:11:23.340Z</time>
1349 </trkpt>
1350 <trkpt lat="51.412628050" lon="6.706163990">
1351 <ele>8.383334160</ele>
1352 <time>2009-06-15T17:11:26.363Z</time>
1353 </trkpt>
1354 <trkpt lat="51.412647440" lon="6.706119040">
1355 <ele>8.223334185</ele>
1356 <time>2009-06-15T17:11:28.429Z</time>
1357 </trkpt>
1358 <trkpt lat="51.412650680" lon="6.706082680">
1359 <ele>8.136667506</ele>
1360 <time>2009-06-15T17:11:29.383Z</time>
1361 </trkpt>
1362 <trkpt lat="51.412658460" lon="6.706052340">
1363 <ele>8.051667531</ele>
1364 <time>2009-06-15T17:11:30.389Z</time>
1365 </trkpt>
1366 <trkpt lat="51.412664230" lon="6.705981520">
1367 <ele>7.873334185</ele>
1368 <time>2009-06-15T17:11:32.450Z</time>
1369 </trkpt>
1370 <trkpt lat="51.412678570" lon="6.705796220">
1371 <ele>7.510000801</ele>
1372 <time>2009-06-15T17:11:36.531Z</time>
1373 </trkpt>
1374 <trkpt lat="51.412688170" lon="6.705761410">
1375 <ele>7.398334122</ele>
1376 <time>2009-06-15T17:11:37.486Z</time>
1377 </trkpt>
1378 <trkpt lat="51.412692420" lon="6.705713230">
1379 <ele>7.280000814</ele>
1380 <time>2009-06-15T17:11:38.491Z</time>
1381 </trkpt>
1382 <trkpt lat="51.412713400" lon="6.705589350">
1383 <ele>6.908334096</ele>
1384 <time>2009-06-15T17:11:41.506Z</time>
1385 </trkpt>
1386 <trkpt lat="51.412724620" lon="6.705477880">
1387 <ele>6.546667417</ele>
1388 <time>2009-06-15T17:11:44.570Z</time>
1389 </trkpt>
1390 <trkpt lat="51.412726710" lon="6.705372450">
1391 <ele>6.221667417</ele>
1392 <time>2009-06-15T17:11:47.607Z</time>
1393 </trkpt>
1394 <trkpt lat="51.412722060" lon="6.705299520">
1395 <ele>5.910000738</ele>
1396 <time>2009-06-15T17:11:50.721Z</time>
1397 </trkpt>
1398 <trkpt lat="51.412707680" lon="6.705256690">
1399 <ele>5.705000814</ele>
1400 <time>2009-06-15T17:11:52.679Z</time>
1401 </trkpt>
1402 <trkpt lat="51.412701030" lon="6.705229580">
1403 <ele>5.516667430</ele>
1404 <time>2009-06-15T17:11:54.741Z</time>
1405 </trkpt>
1406 <trkpt lat="51.412674070" lon="6.705187590">
1407 <ele>5.343334071</ele>
1408 <time>2009-06-15T17:11:56.700Z</time>
1409 </trkpt>
1410 <trkpt lat="51.412660230" lon="6.705144100">
1411 <ele>5.150000699</ele>
1412 <time>2009-06-15T17:11:58.721Z</time>
1413 </trkpt>
1414 <trkpt lat="51.412645670" lon="6.705124650">
1415 <ele>5.045000712</ele>
1416 <time>2009-06-15T17:11:59.826Z</time>
1417 </trkpt>
1418 <trkpt lat="51.412638120" lon="6.705089400">
1419 <ele>4.845000712</ele>
1420 <time>2009-06-15T17:12:01.907Z</time>
1421 </trkpt>
1422 <trkpt lat="51.412641640" lon="6.705058800">
1423 <ele>4.740000725</ele>
1424 <time>2009-06-15T17:12:02.863Z</time>
1425 </trkpt>
1426 <trkpt lat="51.412640990" lon="6.705011720">
1427 <ele>4.526667341</ele>
1428 <time>2009-06-15T17:12:04.872Z</time>
1429 </trkpt>
1430 <trkpt lat="51.412631450" lon="6.704915470">
1431 <ele>4.321667353</ele>
1432 <time>2009-06-15T17:12:06.927Z</time>
1433 </trkpt>
1434 <trkpt lat="51.412617510" lon="6.704844400">
1435 <ele>4.131667328</ele>
1436 <time>2009-06-15T17:12:08.936Z</time>
1437 </trkpt>
1438 <trkpt lat="51.412610630" lon="6.704807560">
1439 <ele>4.040000661</ele>
1440 <time>2009-06-15T17:12:10.085Z</time>
1441 </trkpt>
1442 <trkpt lat="51.412604140" lon="6.704727730">
1443 <ele>3.868334007</ele>
1444 <time>2009-06-15T17:12:12.045Z</time>
1445 </trkpt>
1446 <trkpt lat="51.412596730" lon="6.704637390">
1447 <ele>3.643334007</ele>
1448 <time>2009-06-15T17:12:15.088Z</time>
1449 </trkpt>
1450 <trkpt lat="51.412579690" lon="6.704529520">
1451 <ele>3.435000674</ele>
1452 <time>2009-06-15T17:12:18.149Z</time>
1453 </trkpt>
1454 <trkpt lat="51.412574120" lon="6.704439170">
1455 <ele>3.260000610</ele>
1456 <time>2009-06-15T17:12:21.259Z</time>
1457 </trkpt>
1458 <trkpt lat="51.412574770" lon="6.704407250">
1459 <ele>3.205000623</ele>
1460 <time>2009-06-15T17:12:22.214Z</time>
1461 </trkpt>
1462 <trkpt lat="51.412569300" lon="6.704384950">
1463 <ele>3.156667328</ele>
1464 <time>2009-06-15T17:12:23.218Z</time>
1465 </trkpt>
1466 <trkpt lat="51.412555160" lon="6.704312940">
1467 <ele>3.056667264</ele>
1468 <time>2009-06-15T17:12:25.261Z</time>
1469 </trkpt>
1470 <trkpt lat="51.412542310" lon="6.704266340">
1471 <ele>3.013333956</ele>
1472 <time>2009-06-15T17:12:26.266Z</time>
1473 </trkpt>
1474 <trkpt lat="51.412530690" lon="6.704232780">
1475 <ele>2.971667290</ele>
1476 <time>2009-06-15T17:12:27.272Z</time>
1477 </trkpt>
1478 <trkpt lat="51.412496970" lon="6.704180850">
1479 <ele>2.936667252</ele>
1480 <time>2009-06-15T17:12:28.342Z</time>
1481 </trkpt>
1482 <trkpt lat="51.412478620" lon="6.704114180">
1483 <ele>2.860000610</ele>
1484 <time>2009-06-15T17:12:30.297Z</time>
1485 </trkpt>
1486 <trkpt lat="51.412452250" lon="6.704078230">
1487 <ele>2.828333918</ele>
1488 <time>2009-06-15T17:12:31.362Z</time>
1489 </trkpt>
1490 <trkpt lat="51.412420770" lon="6.703961260">
1491 <ele>2.761667252</ele>
1492 <time>2009-06-15T17:12:34.328Z</time>
1493 </trkpt>
1494 <trkpt lat="51.412424560" lon="6.703908700">
1495 <ele>2.725000636</ele>
1496 <time>2009-06-15T17:12:36.384Z</time>
1497 </trkpt>
1498 <trkpt lat="51.412426320" lon="6.703887620">
1499 <ele>2.711667315</ele>
1500 <time>2009-06-15T17:12:37.389Z</time>
1501 </trkpt>
1502 <trkpt lat="51.412441200" lon="6.703849880">
1503 <ele>2.695000712</ele>
1504 <time>2009-06-15T17:12:39.422Z</time>
1505 </trkpt>
1506 <trkpt lat="51.412457390" lon="6.703828730">
1507 <ele>2.690000725</ele>
1508 <time>2009-06-15T17:12:40.428Z</time>
1509 </trkpt>
1510 <trkpt lat="51.412472230" lon="6.703777070">
1511 <ele>2.677966878</ele>
1512 <time>2009-06-15T17:12:42.516Z</time>
1513 </trkpt>
1514 <trkpt lat="51.412502760" lon="6.703718080">
1515 <ele>2.660000738</ele>
1516 <time>2009-06-15T17:12:44.478Z</time>
1517 </trkpt>
1518 <trkpt lat="51.412534630" lon="6.703628690">
1519 <ele>2.628334045</ele>
1520 <time>2009-06-15T17:12:47.505Z</time>
1521 </trkpt>
1522 <trkpt lat="51.412553220" lon="6.703580010">
1523 <ele>2.613334020</ele>
1524 <time>2009-06-15T17:12:49.572Z</time>
1525 </trkpt>
1526 <trkpt lat="51.412560800" lon="6.703521450">
1527 <ele>2.591667430</ele>
1528 <time>2009-06-15T17:12:51.543Z</time>
1529 </trkpt>
1530 <trkpt lat="51.412562510" lon="6.703455830">
1531 <ele>2.573334058</ele>
1532 <time>2009-06-15T17:12:54.581Z</time>
1533 </trkpt>
1534 <trkpt lat="51.412559740" lon="6.703440670">
1535 <ele>2.590000725</ele>
1536 <time>2009-06-15T17:12:55.586Z</time>
1537 </trkpt>
1538 <trkpt lat="51.412566300" lon="6.703430770">
1539 <ele>2.600000699</ele>
1540 <time>2009-06-15T17:12:56.590Z</time>
1541 </trkpt>
1542 <trkpt lat="51.412558920" lon="6.703395020">
1543 <ele>2.696667353</ele>
1544 <time>2009-06-15T17:12:58.635Z</time>
1545 </trkpt>
1546 <trkpt lat="51.412579910" lon="6.703389630">
1547 <ele>2.830000687</ele>
1548 <time>2009-06-15T17:13:00.729Z</time>
1549 </trkpt>
1550 <trkpt lat="51.412596130" lon="6.703386160">
1551 <ele>2.906667391</ele>
1552 <time>2009-06-15T17:13:01.706Z</time>
1553 </trkpt>
1554 <trkpt lat="51.412607140" lon="6.703374820">
1555 <ele>2.986667379</ele>
1556 <time>2009-06-15T17:13:02.710Z</time>
1557 </trkpt>
1558 <trkpt lat="51.412628020" lon="6.703369260">
1559 <ele>3.065000725</ele>
1560 <time>2009-06-15T17:13:03.714Z</time>
1561 </trkpt>
1562 <trkpt lat="51.412648440" lon="6.703369120">
1563 <ele>3.145000712</ele>
1564 <time>2009-06-15T17:13:04.815Z</time>
1565 </trkpt>
1566 <trkpt lat="51.412680060" lon="6.703368350">
1567 <ele>3.428334045</ele>
1568 <time>2009-06-15T17:13:07.778Z</time>
1569 </trkpt>
1570 <trkpt lat="51.412688120" lon="6.703378000">
1571 <ele>3.525000699</ele>
1572 <time>2009-06-15T17:13:08.848Z</time>
1573 </trkpt>
1574 <trkpt lat="51.412720960" lon="6.703377260">
1575 <ele>3.848334058</ele>
1576 <time>2009-06-15T17:13:11.881Z</time>
1577 </trkpt>
1578 <trkpt lat="51.412740760" lon="6.703381260">
1579 <ele>3.961667379</ele>
1580 <time>2009-06-15T17:13:12.867Z</time>
1581 </trkpt>
1582 <trkpt lat="51.412777880" lon="6.703394550">
1583 <ele>4.323334058</ele>
1584 <time>2009-06-15T17:13:15.931Z</time>
1585 </trkpt>
1586 <trkpt lat="51.412825050" lon="6.703408300">
1587 <ele>4.593334134</ele>
1588 <time>2009-06-15T17:13:17.890Z</time>
1589 </trkpt>
1590 <trkpt lat="51.412869310" lon="6.703438490">
1591 <ele>5.026667531</ele>
1592 <time>2009-06-15T17:13:21.030Z</time>
1593 </trkpt>
1594 <trkpt lat="51.412921420" lon="6.703457830">
1595 <ele>5.495000839</ele>
1596 <time>2009-06-15T17:13:24.083Z</time>
1597 </trkpt>
1598 <trkpt lat="51.412968100" lon="6.703465670">
1599 <ele>5.843334198</ele>
1600 <time>2009-06-15T17:13:26.103Z</time>
1601 </trkpt>
1602 <trkpt lat="51.413030490" lon="6.703476300">
1603 <ele>6.391667557</ele>
1604 <time>2009-06-15T17:13:29.155Z</time>
1605 </trkpt>
1606 <trkpt lat="51.413085550" lon="6.703479430">
1607 <ele>6.998334185</ele>
1608 <time>2009-06-15T17:13:32.194Z</time>
1609 </trkpt>
1610 <trkpt lat="51.413107380" lon="6.703464180">
1611 <ele>7.196667544</ele>
1612 <time>2009-06-15T17:13:33.275Z</time>
1613 </trkpt>
1614 <trkpt lat="51.413140880" lon="6.703444980">
1615 <ele>7.600000827</ele>
1616 <time>2009-06-15T17:13:35.270Z</time>
1617 </trkpt>
1618 <trkpt lat="51.413154470" lon="6.703434890">
1619 <ele>7.800000827</ele>
1620 <time>2009-06-15T17:13:36.275Z</time>
1621 </trkpt>
1622 <trkpt lat="51.413229940" lon="6.703404010">
1623 <ele>8.537288860</ele>
1624 <time>2009-06-15T17:13:39.477Z</time>
1625 </trkpt>
1626 <trkpt lat="51.413260950" lon="6.703379760">
1627 <ele>8.976271936</ele>
1628 <time>2009-06-15T17:13:41.530Z</time>
1629 </trkpt>
1630 <trkpt lat="51.413320930" lon="6.703341800">
1631 <ele>9.635593996</ele>
1632 <time>2009-06-15T17:13:44.531Z</time>
1633 </trkpt>
1634 <trkpt lat="51.413379150" lon="6.703282080">
1635 <ele>10.261017816</ele>
1636 <time>2009-06-15T17:13:47.574Z</time>
1637 </trkpt>
1638 <trkpt lat="51.413406870" lon="6.703270260">
1639 <ele>10.469492444</ele>
1640 <time>2009-06-15T17:13:48.642Z</time>
1641 </trkpt>
1642 <trkpt lat="51.413439210" lon="6.703246050">
1643 <ele>10.677967072</ele>
1644 <time>2009-06-15T17:13:49.597Z</time>
1645 </trkpt>
1646 <trkpt lat="51.413465450" lon="6.703221140">
1647 <ele>10.883051791</ele>
1648 <time>2009-06-15T17:13:50.602Z</time>
1649 </trkpt>
1650 <trkpt lat="51.413538690" lon="6.703160180">
1651 <ele>11.484746707</ele>
1652 <time>2009-06-15T17:13:53.633Z</time>
1653 </trkpt>
1654 <trkpt lat="51.413561320" lon="6.703133480">
1655 <ele>11.669492431</ele>
1656 <time>2009-06-15T17:13:54.637Z</time>
1657 </trkpt>
1658 <trkpt lat="51.413596250" lon="6.703088140">
1659 <ele>12.018644947</ele>
1660 <time>2009-06-15T17:13:56.682Z</time>
1661 </trkpt>
1662 <trkpt lat="51.413608840" lon="6.703057030">
1663 <ele>12.172882274</ele>
1664 <time>2009-06-15T17:13:57.686Z</time>
1665 </trkpt>
1666 <trkpt lat="51.413621120" lon="6.703024150">
1667 <ele>12.301695872</ele>
1668 <time>2009-06-15T17:13:58.691Z</time>
1669 </trkpt>
1670 <trkpt lat="51.413626110" lon="6.702990980">
1671 <ele>12.432204360</ele>
1672 <time>2009-06-15T17:13:59.793Z</time>
1673 </trkpt>
1674 <trkpt lat="51.413640570" lon="6.702929510">
1675 <ele>12.681356850</ele>
1676 <time>2009-06-15T17:14:01.752Z</time>
1677 </trkpt>
1678 <trkpt lat="51.413653730" lon="6.702882070">
1679 <ele>12.911865299</ele>
1680 <time>2009-06-15T17:14:03.815Z</time>
1681 </trkpt>
1682 <trkpt lat="51.413663800" lon="6.702839750">
1683 <ele>13.145763656</ele>
1684 <time>2009-06-15T17:14:05.774Z</time>
1685 </trkpt>
1686 <trkpt lat="51.413688150" lon="6.702756630">
1687 <ele>13.363334274</ele>
1688 <time>2009-06-15T17:14:08.825Z</time>
1689 </trkpt>
1690 <trkpt lat="51.413705450" lon="6.702673990">
1691 <ele>13.641667557</ele>
1692 <time>2009-06-15T17:14:11.868Z</time>
1693 </trkpt>
1694 <trkpt lat="51.413722770" lon="6.702574390">
1695 <ele>13.971187333</ele>
1696 <time>2009-06-15T17:14:14.976Z</time>
1697 </trkpt>
1698 <trkpt lat="51.413742480" lon="6.702442010">
1699 <ele>14.198305938</ele>
1700 <time>2009-06-15T17:14:19.053Z</time>
1701 </trkpt>
1702 <trkpt lat="51.413751000" lon="6.702412240">
1703 <ele>14.176667531</ele>
1704 <time>2009-06-15T17:14:20.008Z</time>
1705 </trkpt>
1706 <trkpt lat="51.413753860" lon="6.702380100">
1707 <ele>14.215000852</ele>
1708 <time>2009-06-15T17:14:21.013Z</time>
1709 </trkpt>
1710 <trkpt lat="51.413765280" lon="6.702306460">
1711 <ele>14.313334147</ele>
1712 <time>2009-06-15T17:14:24.038Z</time>
1713 </trkpt>
1714 <trkpt lat="51.413767160" lon="6.702223220">
1715 <ele>14.328334109</ele>
1716 <time>2009-06-15T17:14:27.096Z</time>
1717 </trkpt>
1718 <trkpt lat="51.413764560" lon="6.702175520">
1719 <ele>14.303334045</ele>
1720 <time>2009-06-15T17:14:29.150Z</time>
1721 </trkpt>
1722 <trkpt lat="51.413759470" lon="6.702146650">
1723 <ele>14.273334058</ele>
1724 <time>2009-06-15T17:14:30.132Z</time>
1725 </trkpt>
1726 <trkpt lat="51.413764930" lon="6.702088110">
1727 <ele>14.183334096</ele>
1728 <time>2009-06-15T17:14:32.143Z</time>
1729 </trkpt>
1730 <trkpt lat="51.413769030" lon="6.702005920">
1731 <ele>13.998334122</ele>
1732 <time>2009-06-15T17:14:35.194Z</time>
1733 </trkpt>
1734 <trkpt lat="51.413752070" lon="6.701951820">
1735 <ele>13.848334122</ele>
1736 <time>2009-06-15T17:14:37.300Z</time>
1737 </trkpt>
1738 <trkpt lat="51.413731760" lon="6.701918120">
1739 <ele>13.765000788</ele>
1740 <time>2009-06-15T17:14:38.251Z</time>
1741 </trkpt>
1742 <trkpt lat="51.413693550" lon="6.701874900">
1743 <ele>13.670000776</ele>
1744 <time>2009-06-15T17:14:39.255Z</time>
1745 </trkpt>
1746 <trkpt lat="51.413667760" lon="6.701851050">
1747 <ele>13.568334134</ele>
1748 <time>2009-06-15T17:14:40.366Z</time>
1749 </trkpt>
1750 <trkpt lat="51.413620470" lon="6.701810920">
1751 <ele>13.461667442</ele>
1752 <time>2009-06-15T17:14:41.468Z</time>
1753 </trkpt>
1754 <trkpt lat="51.413566810" lon="6.701753140">
1755 <ele>13.231667391</ele>
1756 <time>2009-06-15T17:14:43.428Z</time>
1757 </trkpt>
1758 <trkpt lat="51.413497440" lon="6.701687530">
1759 <ele>12.890000725</ele>
1760 <time>2009-06-15T17:14:46.494Z</time>
1761 </trkpt>
1762 <trkpt lat="51.413452600" lon="6.701655290">
1763 <ele>12.670000712</ele>
1764 <time>2009-06-15T17:14:48.571Z</time>
1765 </trkpt>
1766 <trkpt lat="51.413356020" lon="6.701590390">
1767 <ele>12.216667366</ele>
1768 <time>2009-06-15T17:14:52.596Z</time>
1769 </trkpt>
1770 <trkpt lat="51.413269200" lon="6.701543450">
1771 <ele>11.786667442</ele>
1772 <time>2009-06-15T17:14:56.661Z</time>
1773 </trkpt>
1774 <trkpt lat="51.413196880" lon="6.701508320">
1775 <ele>11.513334147</ele>
1776 <time>2009-06-15T17:14:59.700Z</time>
1777 </trkpt>
1778 <trkpt lat="51.413118380" lon="6.701465950">
1779 <ele>11.195000839</ele>
1780 <time>2009-06-15T17:15:03.757Z</time>
1781 </trkpt>
1782 <trkpt lat="51.413071610" lon="6.701447260">
1783 <ele>11.056667455</ele>
1784 <time>2009-06-15T17:15:05.717Z</time>
1785 </trkpt>
1786 <trkpt lat="51.413006320" lon="6.701417890">
1787 <ele>10.853334173</ele>
1788 <time>2009-06-15T17:15:08.733Z</time>
1789 </trkpt>
1790 <trkpt lat="51.412937280" lon="6.701392440">
1791 <ele>10.693334262</ele>
1792 <time>2009-06-15T17:15:11.785Z</time>
1793 </trkpt>
1794 <trkpt lat="51.412911200" lon="6.701390090">
1795 <ele>10.646667608</ele>
1796 <time>2009-06-15T17:15:12.790Z</time>
1797 </trkpt>
1798 <trkpt lat="51.412876360" lon="6.701365170">
1799 <ele>10.565000916</ele>
1800 <time>2009-06-15T17:15:14.899Z</time>
1801 </trkpt>
1802 <trkpt lat="51.412850160" lon="6.701342790">
1803 <ele>10.496667608</ele>
1804 <time>2009-06-15T17:15:16.848Z</time>
1805 </trkpt>
1806 <trkpt lat="51.412825440" lon="6.701316780">
1807 <ele>10.428334236</ele>
1808 <time>2009-06-15T17:15:18.901Z</time>
1809 </trkpt>
1810 <trkpt lat="51.412790480" lon="6.701270310">
1811 <ele>10.328334173</ele>
1812 <time>2009-06-15T17:15:21.985Z</time>
1813 </trkpt>
1814 <trkpt lat="51.412744990" lon="6.701244240">
1815 <ele>10.260000928</ele>
1816 <time>2009-06-15T17:15:23.944Z</time>
1817 </trkpt>
1818 <trkpt lat="51.412690470" lon="6.701205860">
1819 <ele>10.161667633</ele>
1820 <time>2009-06-15T17:15:26.970Z</time>
1821 </trkpt>
1822 <trkpt lat="51.412619340" lon="6.701157960">
1823 <ele>10.190000979</ele>
1824 <time>2009-06-15T17:15:30.019Z</time>
1825 </trkpt>
1826 <trkpt lat="51.412552890" lon="6.701112720">
1827 <ele>10.325000954</ele>
1828 <time>2009-06-15T17:15:33.108Z</time>
1829 </trkpt>
1830 <trkpt lat="51.412452890" lon="6.701046420">
1831 <ele>10.650000954</ele>
1832 <time>2009-06-15T17:15:37.082Z</time>
1833 </trkpt>
1834 <trkpt lat="51.412443050" lon="6.701038060">
1835 <ele>10.750000954</ele>
1836 <time>2009-06-15T17:15:38.087Z</time>
1837 </trkpt>
1838 <trkpt lat="51.412418080" lon="6.701012210">
1839 <ele>10.970000966</ele>
1840 <time>2009-06-15T17:15:40.191Z</time>
1841 </trkpt>
1842 <trkpt lat="51.412348750" lon="6.700958770">
1843 <ele>11.518334262</ele>
1844 <time>2009-06-15T17:15:44.211Z</time>
1845 </trkpt>
1846 <trkpt lat="51.412301420" lon="6.700943880">
1847 <ele>11.956667709</ele>
1848 <time>2009-06-15T17:15:47.227Z</time>
1849 </trkpt>
1850 <trkpt lat="51.412268980" lon="6.700940010">
1851 <ele>12.246667798</ele>
1852 <time>2009-06-15T17:15:49.187Z</time>
1853 </trkpt>
1854 <trkpt lat="51.412234250" lon="6.700941050">
1855 <ele>12.536667887</ele>
1856 <time>2009-06-15T17:15:51.253Z</time>
1857 </trkpt>
1858 <trkpt lat="51.412181130" lon="6.700926220">
1859 <ele>12.973334567</ele>
1860 <time>2009-06-15T17:15:54.279Z</time>
1861 </trkpt>
1862 <trkpt lat="51.412160560" lon="6.700918420">
1863 <ele>13.115001297</ele>
1864 <time>2009-06-15T17:15:55.255Z</time>
1865 </trkpt>
1866 <trkpt lat="51.412097580" lon="6.700915400">
1867 <ele>13.530001259</ele>
1868 <time>2009-06-15T17:15:58.379Z</time>
1869 </trkpt>
1870 <trkpt lat="51.412051510" lon="6.700907730">
1871 <ele>13.925001272</ele>
1872 <time>2009-06-15T17:16:01.430Z</time>
1873 </trkpt>
1874 <trkpt lat="51.412000230" lon="6.700900560">
1875 <ele>14.315001297</ele>
1876 <time>2009-06-15T17:16:04.468Z</time>
1877 </trkpt>
1878 <trkpt lat="51.411959280" lon="6.700883530">
1879 <ele>14.431667964</ele>
1880 <time>2009-06-15T17:16:05.532Z</time>
1881 </trkpt>
1882 <trkpt lat="51.411864550" lon="6.700843580">
1883 <ele>14.881667964</ele>
1884 <time>2009-06-15T17:16:09.632Z</time>
1885 </trkpt>
1886 <trkpt lat="51.411834990" lon="6.700813160">
1887 <ele>15.088334529</ele>
1888 <time>2009-06-15T17:16:11.590Z</time>
1889 </trkpt>
1890 <trkpt lat="51.411818020" lon="6.700787490">
1891 <ele>15.205001195</ele>
1892 <time>2009-06-15T17:16:12.595Z</time>
1893 </trkpt>
1894 <trkpt lat="51.411798560" lon="6.700754270">
1895 <ele>15.321667862</ele>
1896 <time>2009-06-15T17:16:13.663Z</time>
1897 </trkpt>
1898 <trkpt lat="51.411789570" lon="6.700732630">
1899 <ele>15.436667887</ele>
1900 <time>2009-06-15T17:16:14.618Z</time>
1901 </trkpt>
1902 <trkpt lat="51.411772830" lon="6.700688760">
1903 <ele>15.671667926</ele>
1904 <time>2009-06-15T17:16:16.679Z</time>
1905 </trkpt>
1906 <trkpt lat="51.411768720" lon="6.700660390">
1907 <ele>15.790001233</ele>
1908 <time>2009-06-15T17:16:17.634Z</time>
1909 </trkpt>
1910 <trkpt lat="51.411747340" lon="6.700586780">
1911 <ele>16.150001335</ele>
1912 <time>2009-06-15T17:16:20.722Z</time>
1913 </trkpt>
1914 <trkpt lat="51.411746740" lon="6.700569530">
1915 <ele>16.268334707</ele>
1916 <time>2009-06-15T17:16:21.677Z</time>
1917 </trkpt>
1918 <trkpt lat="51.411733360" lon="6.700502260">
1919 <ele>16.638334656</ele>
1920 <time>2009-06-15T17:16:24.758Z</time>
1921 </trkpt>
1922 <trkpt lat="51.411697580" lon="6.700432530">
1923 <ele>17.000001335</ele>
1924 <time>2009-06-15T17:16:27.802Z</time>
1925 </trkpt>
1926 <trkpt lat="51.411669630" lon="6.700404840">
1927 <ele>17.173334694</ele>
1928 <time>2009-06-15T17:16:29.760Z</time>
1929 </trkpt>
1930 <trkpt lat="51.411654680" lon="6.700387710">
1931 <ele>17.295001475</ele>
1932 <time>2009-06-15T17:16:31.858Z</time>
1933 </trkpt>
1934 <trkpt lat="51.411615730" lon="6.700361710">
1935 <ele>17.401668104</ele>
1936 <time>2009-06-15T17:16:34.831Z</time>
1937 </trkpt>
1938 <trkpt lat="51.411581960" lon="6.700322080">
1939 <ele>17.436668078</ele>
1940 <time>2009-06-15T17:16:37.858Z</time>
1941 </trkpt>
1942 <trkpt lat="51.411539330" lon="6.700270720">
1943 <ele>17.441668065</ele>
1944 <time>2009-06-15T17:16:39.894Z</time>
1945 </trkpt>
1946 <trkpt lat="51.411504790" lon="6.700215700">
1947 <ele>17.431668091</ele>
1948 <time>2009-06-15T17:16:41.905Z</time>
1949 </trkpt>
1950 <trkpt lat="51.411465550" lon="6.700150110">
1951 <ele>17.365001424</ele>
1952 <time>2009-06-15T17:16:44.930Z</time>
1953 </trkpt>
1954 <trkpt lat="51.411419000" lon="6.700084090">
1955 <ele>17.258334605</ele>
1956 <time>2009-06-15T17:16:48.005Z</time>
1957 </trkpt>
1958 <trkpt lat="51.411395370" lon="6.700056720">
1959 <ele>17.218334579</ele>
1960 <time>2009-06-15T17:16:49.009Z</time>
1961 </trkpt>
1962 <trkpt lat="51.411344730" lon="6.699982890">
1963 <ele>17.121667798</ele>
1964 <time>2009-06-15T17:16:51.058Z</time>
1965 </trkpt>
1966 <trkpt lat="51.411314750" lon="6.699950250">
1967 <ele>17.065001106</ele>
1968 <time>2009-06-15T17:16:52.062Z</time>
1969 </trkpt>
1970 <trkpt lat="51.411284100" lon="6.699882640">
1971 <ele>16.936667760</ele>
1972 <time>2009-06-15T17:16:54.150Z</time>
1973 </trkpt>
1974 <trkpt lat="51.411279810" lon="6.699854310">
1975 <ele>16.870001030</ele>
1976 <time>2009-06-15T17:16:55.105Z</time>
1977 </trkpt>
1978 <trkpt lat="51.411268230" lon="6.699801690">
1979 <ele>16.731667646</ele>
1980 <time>2009-06-15T17:16:57.219Z</time>
1981 </trkpt>
1982 <trkpt lat="51.411263710" lon="6.699731000">
1983 <ele>16.475000954</ele>
1984 <time>2009-06-15T17:17:00.183Z</time>
1985 </trkpt>
1986 <trkpt lat="51.411267450" lon="6.699708480">
1987 <ele>16.386667633</ele>
1988 <time>2009-06-15T17:17:01.243Z</time>
1989 </trkpt>
1990 <trkpt lat="51.411278980" lon="6.699687360">
1991 <ele>16.286667569</ele>
1992 <time>2009-06-15T17:17:02.198Z</time>
1993 </trkpt>
1994 <trkpt lat="51.411290140" lon="6.699667470">
1995 <ele>16.183334223</ele>
1996 <time>2009-06-15T17:17:03.202Z</time>
1997 </trkpt>
1998 <trkpt lat="51.411301270" lon="6.699646360">
1999 <ele>16.075000890</ele>
2000 <time>2009-06-15T17:17:04.220Z</time>
2001 </trkpt>
2002 <trkpt lat="51.411329860" lon="6.699598770">
2003 <ele>15.851667531</ele>
2004 <time>2009-06-15T17:17:06.275Z</time>
2005 </trkpt>
2006 <trkpt lat="51.411379530" lon="6.699485640">
2007 <ele>15.491667430</ele>
2008 <time>2009-06-15T17:17:09.335Z</time>
2009 </trkpt>
2010 <trkpt lat="51.411387090" lon="6.699432640">
2011 <ele>15.258334160</ele>
2012 <time>2009-06-15T17:17:11.346Z</time>
2013 </trkpt>
2014 <trkpt lat="51.411377080" lon="6.699391380">
2015 <ele>15.130000814</ele>
2016 <time>2009-06-15T17:17:12.413Z</time>
2017 </trkpt>
2018 <trkpt lat="51.411362450" lon="6.699354160">
2019 <ele>14.990000852</ele>
2020 <time>2009-06-15T17:17:13.369Z</time>
2021 </trkpt>
2022 <trkpt lat="51.411341520" lon="6.699331940">
2023 <ele>14.840000852</ele>
2024 <time>2009-06-15T17:17:14.373Z</time>
2025 </trkpt>
2026 <trkpt lat="51.411303380" lon="6.699294010">
2027 <ele>14.688334147</ele>
2028 <time>2009-06-15T17:17:15.398Z</time>
2029 </trkpt>
2030 <trkpt lat="51.411275280" lon="6.699239970">
2031 <ele>14.535000801</ele>
2032 <time>2009-06-15T17:17:16.500Z</time>
2033 </trkpt>
2034 <trkpt lat="51.411234240" lon="6.699208650">
2035 <ele>14.213334084</ele>
2036 <time>2009-06-15T17:17:18.459Z</time>
2037 </trkpt>
2038 <trkpt lat="51.411221130" lon="6.699199960">
2039 <ele>14.055000750</ele>
2040 <time>2009-06-15T17:17:19.543Z</time>
2041 </trkpt>
2042 <trkpt lat="51.411206310" lon="6.699148680">
2043 <ele>13.738334020</ele>
2044 <time>2009-06-15T17:17:21.595Z</time>
2045 </trkpt>
2046 <trkpt lat="51.411209460" lon="6.699122340">
2047 <ele>13.573333995</ele>
2048 <time>2009-06-15T17:17:22.599Z</time>
2049 </trkpt>
2050 <trkpt lat="51.411221870" lon="6.699090410">
2051 <ele>13.408334033</ele>
2052 <time>2009-06-15T17:17:23.660Z</time>
2053 </trkpt>
2054 <trkpt lat="51.411232780" lon="6.699050330">
2055 <ele>13.240000661</ele>
2056 <time>2009-06-15T17:17:24.615Z</time>
2057 </trkpt>
2058 <trkpt lat="51.411240870" lon="6.699018130">
2059 <ele>13.076667341</ele>
2060 <time>2009-06-15T17:17:25.621Z</time>
2061 </trkpt>
2062 <trkpt lat="51.411266720" lon="6.698917140">
2063 <ele>12.580000687</ele>
2064 <time>2009-06-15T17:17:28.646Z</time>
2065 </trkpt>
2066 <trkpt lat="51.411287880" lon="6.698899760">
2067 <ele>12.416667302</ele>
2068 <time>2009-06-15T17:17:29.651Z</time>
2069 </trkpt>
2070 <trkpt lat="51.411293040" lon="6.698818440">
2071 <ele>12.083333969</ele>
2072 <time>2009-06-15T17:17:31.698Z</time>
2073 </trkpt>
2074 <trkpt lat="51.411327050" lon="6.698773930">
2075 <ele>11.783333906</ele>
2076 <time>2009-06-15T17:17:33.802Z</time>
2077 </trkpt>
2078 <trkpt lat="51.411340400" lon="6.698737060">
2079 <ele>11.643333944</ele>
2080 <time>2009-06-15T17:17:34.756Z</time>
2081 </trkpt>
2082 <trkpt lat="51.411357860" lon="6.698710000">
2083 <ele>11.518333944</ele>
2084 <time>2009-06-15T17:17:35.761Z</time>
2085 </trkpt>
2086 <trkpt lat="51.411397510" lon="6.698635740">
2087 <ele>11.143334007</ele>
2088 <time>2009-06-15T17:17:38.829Z</time>
2089 </trkpt>
2090 <trkpt lat="51.411431450" lon="6.698598910">
2091 <ele>10.816949877</ele>
2092 <time>2009-06-15T17:17:40.947Z</time>
2093 </trkpt>
2094 <trkpt lat="51.411458810" lon="6.698566530">
2095 <ele>10.685000674</ele>
2096 <time>2009-06-15T17:17:42.908Z</time>
2097 </trkpt>
2098 <trkpt lat="51.411475890" lon="6.698540520">
2099 <ele>10.590000661</ele>
2100 <time>2009-06-15T17:17:43.912Z</time>
2101 </trkpt>
2102 <trkpt lat="51.411521310" lon="6.698477240">
2103 <ele>10.320000648</ele>
2104 <time>2009-06-15T17:17:46.960Z</time>
2105 </trkpt>
2106 <trkpt lat="51.411552620" lon="6.698449600">
2107 <ele>10.168334007</ele>
2108 <time>2009-06-15T17:17:49.007Z</time>
2109 </trkpt>
2110 <trkpt lat="51.411563360" lon="6.698431150">
2111 <ele>10.111667315</ele>
2112 <time>2009-06-15T17:17:50.011Z</time>
2113 </trkpt>
2114 <trkpt lat="51.411569870" lon="6.698414370">
2115 <ele>10.058333969</ele>
2116 <time>2009-06-15T17:17:51.016Z</time>
2117 </trkpt>
2118 <trkpt lat="51.411584580" lon="6.698396640">
2119 <ele>9.942373502</ele>
2120 <time>2009-06-15T17:17:52.095Z</time>
2121 </trkpt>
2122 <trkpt lat="51.411638750" lon="6.698340100">
2123 <ele>9.928333855</ele>
2124 <time>2009-06-15T17:17:55.090Z</time>
2125 </trkpt>
2126 <trkpt lat="51.411688500" lon="6.698283640">
2127 <ele>9.847458144</ele>
2128 <time>2009-06-15T17:17:58.137Z</time>
2129 </trkpt>
2130 <trkpt lat="51.411727250" lon="6.698224840">
2131 <ele>9.862712408</ele>
2132 <time>2009-06-15T17:18:01.127Z</time>
2133 </trkpt>
2134 <trkpt lat="51.411760180" lon="6.698176710">
2135 <ele>9.883051403</ele>
2136 <time>2009-06-15T17:18:03.140Z</time>
2137 </trkpt>
2138 <trkpt lat="51.411776840" lon="6.698145760">
2139 <ele>9.893220869</ele>
2140 <time>2009-06-15T17:18:04.184Z</time>
2141 </trkpt>
2142 <trkpt lat="51.411813610" lon="6.698111670">
2143 <ele>9.937288640</ele>
2144 <time>2009-06-15T17:18:06.194Z</time>
2145 </trkpt>
2146 <trkpt lat="51.411853690" lon="6.698076900">
2147 <ele>10.008475094</ele>
2148 <time>2009-06-15T17:18:08.213Z</time>
2149 </trkpt>
2150 <trkpt lat="51.411885710" lon="6.698033510">
2151 <ele>10.094915810</ele>
2152 <time>2009-06-15T17:18:10.223Z</time>
2153 </trkpt>
2154 <trkpt lat="51.411904090" lon="6.698003720">
2155 <ele>10.130509005</ele>
2156 <time>2009-06-15T17:18:11.314Z</time>
2157 </trkpt>
2158 <trkpt lat="51.411933860" lon="6.697987100">
2159 <ele>10.166102264</ele>
2160 <time>2009-06-15T17:18:12.262Z</time>
2161 </trkpt>
2162 <trkpt lat="51.411978710" lon="6.697944400">
2163 <ele>10.250848027</ele>
2164 <time>2009-06-15T17:18:14.349Z</time>
2165 </trkpt>
2166 <trkpt lat="51.412001510" lon="6.697921730">
2167 <ele>10.298305641</ele>
2168 <time>2009-06-15T17:18:15.294Z</time>
2169 </trkpt>
2170 <trkpt lat="51.412024920" lon="6.697874830">
2171 <ele>10.344068366</ele>
2172 <time>2009-06-15T17:18:16.393Z</time>
2173 </trkpt>
2174 <trkpt lat="51.412061970" lon="6.697848810">
2175 <ele>10.437288705</ele>
2176 <time>2009-06-15T17:18:18.352Z</time>
2177 </trkpt>
2178 <trkpt lat="51.412079310" lon="6.697826780">
2179 <ele>10.483051429</ele>
2180 <time>2009-06-15T17:18:19.356Z</time>
2181 </trkpt>
2182 <trkpt lat="51.412084860" lon="6.697799140">
2183 <ele>10.525424311</ele>
2184 <time>2009-06-15T17:18:20.427Z</time>
2185 </trkpt>
2186 <trkpt lat="51.412106730" lon="6.697766090">
2187 <ele>10.571187036</ele>
2188 <time>2009-06-15T17:18:21.382Z</time>
2189 </trkpt>
2190 <trkpt lat="51.412158580" lon="6.697681490">
2191 <ele>10.774576801</ele>
2192 <time>2009-06-15T17:18:24.432Z</time>
2193 </trkpt>
2194 <trkpt lat="51.412175990" lon="6.697650160">
2195 <ele>10.850847988</ele>
2196 <time>2009-06-15T17:18:25.437Z</time>
2197 </trkpt>
2198 <trkpt lat="51.412185660" lon="6.697626380">
2199 <ele>10.925424285</ele>
2200 <time>2009-06-15T17:18:26.441Z</time>
2201 </trkpt>
2202 <trkpt lat="51.412206540" lon="6.697602230">
2203 <ele>10.998305628</ele>
2204 <time>2009-06-15T17:18:27.518Z</time>
2205 </trkpt>
2206 <trkpt lat="51.412265280" lon="6.697535300">
2207 <ele>11.206780191</ele>
2208 <time>2009-06-15T17:18:30.539Z</time>
2209 </trkpt>
2210 <trkpt lat="51.412289890" lon="6.697486930">
2211 <ele>11.349153098</ele>
2212 <time>2009-06-15T17:18:32.504Z</time>
2213 </trkpt>
2214 <trkpt lat="51.412272340" lon="6.697436030">
2215 <ele>11.427119174</ele>
2216 <time>2009-06-15T17:18:33.508Z</time>
2217 </trkpt>
2218 <trkpt lat="51.412254080" lon="6.697394680">
2219 <ele>11.508475158</ele>
2220 <time>2009-06-15T17:18:34.572Z</time>
2221 </trkpt>
2222 <trkpt lat="51.412236620" lon="6.697355960">
2223 <ele>11.591525967</ele>
2224 <time>2009-06-15T17:18:35.527Z</time>
2225 </trkpt>
2226 <trkpt lat="51.412213170" lon="6.697279250">
2227 <ele>11.733898874</ele>
2228 <time>2009-06-15T17:18:37.572Z</time>
2229 </trkpt>
2230 <trkpt lat="51.412189960" lon="6.697205700">
2231 <ele>11.933898861</ele>
2232 <time>2009-06-15T17:18:40.634Z</time>
2233 </trkpt>
2234 <trkpt lat="51.412152710" lon="6.697114220">
2235 <ele>12.116949760</ele>
2236 <time>2009-06-15T17:18:43.697Z</time>
2237 </trkpt>
2238 <trkpt lat="51.412133180" lon="6.697082930">
2239 <ele>12.172882015</ele>
2240 <time>2009-06-15T17:18:44.703Z</time>
2241 </trkpt>
2242 <trkpt lat="51.412110600" lon="6.697050750">
2243 <ele>12.235593893</ele>
2244 <time>2009-06-15T17:18:45.760Z</time>
2245 </trkpt>
2246 <trkpt lat="51.412054810" lon="6.696958750">
2247 <ele>12.437288769</ele>
2248 <time>2009-06-15T17:18:48.803Z</time>
2249 </trkpt>
2250 <trkpt lat="51.411980080" lon="6.696849860">
2251 <ele>12.627119291</ele>
2252 <time>2009-06-15T17:18:52.846Z</time>
2253 </trkpt>
2254 <trkpt lat="51.411941040" lon="6.696803520">
2255 <ele>12.664407504</ele>
2256 <time>2009-06-15T17:18:54.806Z</time>
2257 </trkpt>
2258 <trkpt lat="51.411889270" lon="6.696735370">
2259 <ele>12.685000738</ele>
2260 <time>2009-06-15T17:18:57.829Z</time>
2261 </trkpt>
2262 <trkpt lat="51.411833960" lon="6.696675520">
2263 <ele>12.698334122</ele>
2264 <time>2009-06-15T17:19:00.872Z</time>
2265 </trkpt>
2266 <trkpt lat="51.411807440" lon="6.696652110">
2267 <ele>12.710000801</ele>
2268 <time>2009-06-15T17:19:01.877Z</time>
2269 </trkpt>
2270 <trkpt lat="51.411737200" lon="6.696585800">
2271 <ele>12.766667493</ele>
2272 <time>2009-06-15T17:19:04.896Z</time>
2273 </trkpt>
2274 <trkpt lat="51.411702470" lon="6.696543140">
2275 <ele>12.791667493</ele>
2276 <time>2009-06-15T17:19:06.972Z</time>
2277 </trkpt>
2278 <trkpt lat="51.411627140" lon="6.696453390">
2279 <ele>12.860000801</ele>
2280 <time>2009-06-15T17:19:11.023Z</time>
2281 </trkpt>
2282 <trkpt lat="51.411579250" lon="6.696382770">
2283 <ele>12.985000801</ele>
2284 <time>2009-06-15T17:19:14.078Z</time>
2285 </trkpt>
2286 <trkpt lat="51.411557350" lon="6.696364000">
2287 <ele>13.033334160</ele>
2288 <time>2009-06-15T17:19:15.034Z</time>
2289 </trkpt>
2290 <trkpt lat="51.411532300" lon="6.696352670">
2291 <ele>13.085000801</ele>
2292 <time>2009-06-15T17:19:16.039Z</time>
2293 </trkpt>
2294 <trkpt lat="51.411500010" lon="6.696337230">
2295 <ele>13.200000827</ele>
2296 <time>2009-06-15T17:19:18.153Z</time>
2297 </trkpt>
2298 <trkpt lat="51.411476740" lon="6.696332660">
2299 <ele>13.253334173</ele>
2300 <time>2009-06-15T17:19:19.103Z</time>
2301 </trkpt>
2302 <trkpt lat="51.411435980" lon="6.696338370">
2303 <ele>13.376667468</ele>
2304 <time>2009-06-15T17:19:21.116Z</time>
2305 </trkpt>
2306 <trkpt lat="51.411415820" lon="6.696346720">
2307 <ele>13.433334160</ele>
2308 <time>2009-06-15T17:19:22.120Z</time>
2309 </trkpt>
2310 <trkpt lat="51.411398110" lon="6.696359890">
2311 <ele>13.480000877</ele>
2312 <time>2009-06-15T17:19:23.125Z</time>
2313 </trkpt>
2314 <trkpt lat="51.411374620" lon="6.696378140">
2315 <ele>13.521667544</ele>
2316 <time>2009-06-15T17:19:24.130Z</time>
2317 </trkpt>
2318 <trkpt lat="51.411362180" lon="6.696398500">
2319 <ele>13.561667569</ele>
2320 <time>2009-06-15T17:19:25.195Z</time>
2321 </trkpt>
2322 <trkpt lat="51.411346870" lon="6.696425950">
2323 <ele>13.591667557</ele>
2324 <time>2009-06-15T17:19:26.149Z</time>
2325 </trkpt>
2326 <trkpt lat="51.411327300" lon="6.696459630">
2327 <ele>13.613334211</ele>
2328 <time>2009-06-15T17:19:27.155Z</time>
2329 </trkpt>
2330 <trkpt lat="51.411287220" lon="6.696543080">
2331 <ele>13.666667493</ele>
2332 <time>2009-06-15T17:19:30.172Z</time>
2333 </trkpt>
2334 <trkpt lat="51.411241170" lon="6.696622830">
2335 <ele>13.708334223</ele>
2336 <time>2009-06-15T17:19:33.228Z</time>
2337 </trkpt>
2338 <trkpt lat="51.411221920" lon="6.696647760">
2339 <ele>13.708334223</ele>
2340 <time>2009-06-15T17:19:34.233Z</time>
2341 </trkpt>
2342 <trkpt lat="51.411173030" lon="6.696714850">
2343 <ele>13.671667544</ele>
2344 <time>2009-06-15T17:19:37.283Z</time>
2345 </trkpt>
2346 <trkpt lat="51.411111570" lon="6.696777120">
2347 <ele>13.660000865</ele>
2348 <time>2009-06-15T17:19:39.342Z</time>
2349 </trkpt>
2350 <trkpt lat="51.411056510" lon="6.696830540">
2351 <ele>13.655000814</ele>
2352 <time>2009-06-15T17:19:42.420Z</time>
2353 </trkpt>
2354 <trkpt lat="51.410991560" lon="6.696889260">
2355 <ele>13.608334096</ele>
2356 <time>2009-06-15T17:19:46.475Z</time>
2357 </trkpt>
2358 <trkpt lat="51.410952420" lon="6.696915750">
2359 <ele>13.561667442</ele>
2360 <time>2009-06-15T17:19:48.436Z</time>
2361 </trkpt>
2362 <trkpt lat="51.410905270" lon="6.696934370">
2363 <ele>13.496667480</ele>
2364 <time>2009-06-15T17:19:50.494Z</time>
2365 </trkpt>
2366 <trkpt lat="51.410887770" lon="6.696955270">
2367 <ele>13.466667493</ele>
2368 <time>2009-06-15T17:19:51.499Z</time>
2369 </trkpt>
2370 <trkpt lat="51.410869240" lon="6.696976650">
2371 <ele>13.448334185</ele>
2372 <time>2009-06-15T17:19:52.504Z</time>
2373 </trkpt>
2374 <trkpt lat="51.410821830" lon="6.697019370">
2375 <ele>13.440000852</ele>
2376 <time>2009-06-15T17:19:54.548Z</time>
2377 </trkpt>
2378 <trkpt lat="51.410792900" lon="6.697060020">
2379 <ele>13.463334211</ele>
2380 <time>2009-06-15T17:19:56.712Z</time>
2381 </trkpt>
2382 <trkpt lat="51.410753790" lon="6.697133930">
2383 <ele>13.513334211</ele>
2384 <time>2009-06-15T17:19:59.735Z</time>
2385 </trkpt>
2386 <trkpt lat="51.410747400" lon="6.697162180">
2387 <ele>13.533334160</ele>
2388 <time>2009-06-15T17:20:00.837Z</time>
2389 </trkpt>
2390 <trkpt lat="51.410729070" lon="6.697218250">
2391 <ele>13.560000801</ele>
2392 <time>2009-06-15T17:20:02.795Z</time>
2393 </trkpt>
2394 <trkpt lat="51.410720710" lon="6.697274260">
2395 <ele>13.569492275</ele>
2396 <time>2009-06-15T17:20:04.902Z</time>
2397 </trkpt>
2398 <trkpt lat="51.410712940" lon="6.697372310">
2399 <ele>13.596667417</ele>
2400 <time>2009-06-15T17:20:07.911Z</time>
2401 </trkpt>
2402 <trkpt lat="51.410718390" lon="6.697399130">
2403 <ele>13.605000750</ele>
2404 <time>2009-06-15T17:20:08.877Z</time>
2405 </trkpt>
2406 <trkpt lat="51.410723990" lon="6.697425330">
2407 <ele>13.611667442</ele>
2408 <time>2009-06-15T17:20:09.882Z</time>
2409 </trkpt>
2410 <trkpt lat="51.410735050" lon="6.697487500">
2411 <ele>13.616667430</ele>
2412 <time>2009-06-15T17:20:11.976Z</time>
2413 </trkpt>
2414 <trkpt lat="51.410760910" lon="6.697620870">
2415 <ele>13.565000788</ele>
2416 <time>2009-06-15T17:20:15.954Z</time>
2417 </trkpt>
2418 <trkpt lat="51.410779320" lon="6.697722540">
2419 <ele>13.521667480</ele>
2420 <time>2009-06-15T17:20:19.029Z</time>
2421 </trkpt>
2422 <trkpt lat="51.410797930" lon="6.697844840">
2423 <ele>13.506667519</ele>
2424 <time>2009-06-15T17:20:23.010Z</time>
2425 </trkpt>
2426 <trkpt lat="51.410799120" lon="6.697903080">
2427 <ele>13.508334160</ele>
2428 <time>2009-06-15T17:20:25.020Z</time>
2429 </trkpt>
2430 <trkpt lat="51.410810520" lon="6.697965780">
2431 <ele>13.526667531</ele>
2432 <time>2009-06-15T17:20:27.063Z</time>
2433 </trkpt>
2434 <trkpt lat="51.410821310" lon="6.698034740">
2435 <ele>13.578334236</ele>
2436 <time>2009-06-15T17:20:29.155Z</time>
2437 </trkpt>
2438 <trkpt lat="51.410824040" lon="6.698137720">
2439 <ele>13.701667595</ele>
2440 <time>2009-06-15T17:20:32.175Z</time>
2441 </trkpt>
2442 <trkpt lat="51.410824140" lon="6.698174820">
2443 <ele>13.748334249</ele>
2444 <time>2009-06-15T17:20:33.181Z</time>
2445 </trkpt>
2446 <trkpt lat="51.410816070" lon="6.698213770">
2447 <ele>13.811865338</ele>
2448 <time>2009-06-15T17:20:34.321Z</time>
2449 </trkpt>
2450 <trkpt lat="51.410801410" lon="6.698279630">
2451 <ele>13.903390787</ele>
2452 <time>2009-06-15T17:20:36.367Z</time>
2453 </trkpt>
2454 <trkpt lat="51.410786330" lon="6.698303080">
2455 <ele>13.945763669</ele>
2456 <time>2009-06-15T17:20:37.292Z</time>
2457 </trkpt>
2458 <trkpt lat="51.410755770" lon="6.698339180">
2459 <ele>13.989831440</ele>
2460 <time>2009-06-15T17:20:38.387Z</time>
2461 </trkpt>
2462 <trkpt lat="51.410730000" lon="6.698364530">
2463 <ele>14.077967046</ele>
2464 <time>2009-06-15T17:20:40.420Z</time>
2465 </trkpt>
2466 <trkpt lat="51.410717150" lon="6.698395840">
2467 <ele>14.161667633</ele>
2468 <time>2009-06-15T17:20:42.381Z</time>
2469 </trkpt>
2470 <trkpt lat="51.410679490" lon="6.698436960">
2471 <ele>14.318645025</ele>
2472 <time>2009-06-15T17:20:44.404Z</time>
2473 </trkpt>
2474 <trkpt lat="51.410668170" lon="6.698460480">
2475 <ele>14.394916211</ele>
2476 <time>2009-06-15T17:20:45.412Z</time>
2477 </trkpt>
2478 <trkpt lat="51.410639180" lon="6.698486150">
2479 <ele>14.547458519</ele>
2480 <time>2009-06-15T17:20:47.468Z</time>
2481 </trkpt>
2482 <trkpt lat="51.410624810" lon="6.698522500">
2483 <ele>14.715255155</ele>
2484 <time>2009-06-15T17:20:49.552Z</time>
2485 </trkpt>
2486 <trkpt lat="51.410592090" lon="6.698594470">
2487 <ele>14.928814452</ele>
2488 <time>2009-06-15T17:20:52.516Z</time>
2489 </trkpt>
2490 <trkpt lat="51.410560240" lon="6.698663200">
2491 <ele>15.051667531</ele>
2492 <time>2009-06-15T17:20:55.541Z</time>
2493 </trkpt>
2494 <trkpt lat="51.410544420" lon="6.698676670">
2495 <ele>15.096667544</ele>
2496 <time>2009-06-15T17:20:56.628Z</time>
2497 </trkpt>
2498 <trkpt lat="51.410531780" lon="6.698682400">
2499 <ele>15.133334160</ele>
2500 <time>2009-06-15T17:20:57.593Z</time>
2501 </trkpt>
2502 <trkpt lat="51.410498760" lon="6.698727270">
2503 <ele>15.208334096</ele>
2504 <time>2009-06-15T17:20:59.602Z</time>
2505 </trkpt>
2506 <trkpt lat="51.410451890" lon="6.698777040">
2507 <ele>15.310000801</ele>
2508 <time>2009-06-15T17:21:02.651Z</time>
2509 </trkpt>
2510 <trkpt lat="51.410426570" lon="6.698832000">
2511 <ele>15.370000839</ele>
2512 <time>2009-06-15T17:21:04.679Z</time>
2513 </trkpt>
2514 <trkpt lat="51.410417400" lon="6.698856630">
2515 <ele>15.403334173</ele>
2516 <time>2009-06-15T17:21:05.685Z</time>
2517 </trkpt>
2518 <trkpt lat="51.410400160" lon="6.698909080">
2519 <ele>15.471667480</ele>
2520 <time>2009-06-15T17:21:07.704Z</time>
2521 </trkpt>
2522 <trkpt lat="51.410375660" lon="6.698970980">
2523 <ele>15.570000839</ele>
2524 <time>2009-06-15T17:21:10.771Z</time>
2525 </trkpt>
2526 <trkpt lat="51.410354800" lon="6.699010790">
2527 <ele>15.640000788</ele>
2528 <time>2009-06-15T17:21:12.740Z</time>
2529 </trkpt>
2530 <trkpt lat="51.410348610" lon="6.699051810">
2531 <ele>15.680000814</ele>
2532 <time>2009-06-15T17:21:13.747Z</time>
2533 </trkpt>
2534 <trkpt lat="51.410330320" lon="6.699102240">
2535 <ele>15.752543175</ele>
2536 <time>2009-06-15T17:21:14.960Z</time>
2537 </trkpt>
2538 <trkpt lat="51.410310540" lon="6.699140150">
2539 <ele>15.773334122</ele>
2540 <time>2009-06-15T17:21:15.914Z</time>
2541 </trkpt>
2542 <trkpt lat="51.410305340" lon="6.699189490">
2543 <ele>15.835000801</ele>
2544 <time>2009-06-15T17:21:16.918Z</time>
2545 </trkpt>
2546 <trkpt lat="51.410288820" lon="6.699269180">
2547 <ele>15.965000788</ele>
2548 <time>2009-06-15T17:21:18.973Z</time>
2549 </trkpt>
2550 <trkpt lat="51.410266780" lon="6.699391840">
2551 <ele>16.189831427</ele>
2552 <time>2009-06-15T17:21:22.084Z</time>
2553 </trkpt>
2554 <trkpt lat="51.410267470" lon="6.699477260">
2555 <ele>16.337289002</ele>
2556 <time>2009-06-15T17:21:24.045Z</time>
2557 </trkpt>
2558 <trkpt lat="51.410259840" lon="6.699553250">
2559 <ele>16.466667557</ele>
2560 <time>2009-06-15T17:21:26.056Z</time>
2561 </trkpt>
2562 <trkpt lat="51.410254450" lon="6.699588530">
2563 <ele>16.540000852</ele>
2564 <time>2009-06-15T17:21:27.062Z</time>
2565 </trkpt>
2566 <trkpt lat="51.410233630" lon="6.699667850">
2567 <ele>16.708475404</ele>
2568 <time>2009-06-15T17:21:29.160Z</time>
2569 </trkpt>
2570 <trkpt lat="51.410212450" lon="6.699715960">
2571 <ele>16.838334147</ele>
2572 <time>2009-06-15T17:21:31.119Z</time>
2573 </trkpt>
2574 <trkpt lat="51.410196060" lon="6.699759370">
2575 <ele>16.991667430</ele>
2576 <time>2009-06-15T17:21:33.165Z</time>
2577 </trkpt>
2578 <trkpt lat="51.410167090" lon="6.699813630">
2579 <ele>17.231667391</ele>
2580 <time>2009-06-15T17:21:36.268Z</time>
2581 </trkpt>
2582 <trkpt lat="51.410150290" lon="6.699832330">
2583 <ele>17.306667455</ele>
2584 <time>2009-06-15T17:21:37.223Z</time>
2585 </trkpt>
2586 <trkpt lat="51.410127760" lon="6.699857580">
2587 <ele>17.385000801</ele>
2588 <time>2009-06-15T17:21:38.228Z</time>
2589 </trkpt>
2590 <trkpt lat="51.410087700" lon="6.699916360">
2591 <ele>17.623334185</ele>
2592 <time>2009-06-15T17:21:41.278Z</time>
2593 </trkpt>
2594 <trkpt lat="51.410076180" lon="6.699954160">
2595 <ele>17.775000827</ele>
2596 <time>2009-06-15T17:21:43.351Z</time>
2597 </trkpt>
2598 <trkpt lat="51.409991200" lon="6.700069080">
2599 <ele>18.066667557</ele>
2600 <time>2009-06-15T17:21:47.406Z</time>
2601 </trkpt>
2602 <trkpt lat="51.409932250" lon="6.700149770">
2603 <ele>18.311667506</ele>
2604 <time>2009-06-15T17:21:50.427Z</time>
2605 </trkpt>
2606 <trkpt lat="51.409905860" lon="6.700205470">
2607 <ele>18.506667646</ele>
2608 <time>2009-06-15T17:21:52.388Z</time>
2609 </trkpt>
2610 <trkpt lat="51.409861480" lon="6.700264850">
2611 <ele>18.826667595</ele>
2612 <time>2009-06-15T17:21:55.451Z</time>
2613 </trkpt>
2614 <trkpt lat="51.409837990" lon="6.700319130">
2615 <ele>19.046667671</ele>
2616 <time>2009-06-15T17:21:57.511Z</time>
2617 </trkpt>
2618 <trkpt lat="51.409785340" lon="6.700428780">
2619 <ele>19.538334592</ele>
2620 <time>2009-06-15T17:22:01.579Z</time>
2621 </trkpt>
2622 <trkpt lat="51.409765200" lon="6.700447120">
2623 <ele>19.660001310</ele>
2624 <time>2009-06-15T17:22:02.533Z</time>
2625 </trkpt>
2626 <trkpt lat="51.409759820" lon="6.700477310">
2627 <ele>19.775001335</ele>
2628 <time>2009-06-15T17:22:03.537Z</time>
2629 </trkpt>
2630 <trkpt lat="51.409716150" lon="6.700573020">
2631 <ele>20.141668002</ele>
2632 <time>2009-06-15T17:22:06.594Z</time>
2633 </trkpt>
2634 <trkpt lat="51.409668820" lon="6.700663770">
2635 <ele>20.536668078</ele>
2636 <time>2009-06-15T17:22:09.633Z</time>
2637 </trkpt>
2638 <trkpt lat="51.409649130" lon="6.700687600">
2639 <ele>20.681668091</ele>
2640 <time>2009-06-15T17:22:10.638Z</time>
2641 </trkpt>
2642 <trkpt lat="51.409639080" lon="6.700712550">
2643 <ele>20.831668091</ele>
2644 <time>2009-06-15T17:22:11.644Z</time>
2645 </trkpt>
2646 <trkpt lat="51.409611740" lon="6.700743560">
2647 <ele>21.143334770</ele>
2648 <time>2009-06-15T17:22:13.693Z</time>
2649 </trkpt>
2650 <trkpt lat="51.409579960" lon="6.700765520">
2651 <ele>21.445001348</ele>
2652 <time>2009-06-15T17:22:15.773Z</time>
2653 </trkpt>
2654 <trkpt lat="51.409561440" lon="6.700777290">
2655 <ele>21.585001373</ele>
2656 <time>2009-06-15T17:22:16.728Z</time>
2657 </trkpt>
2658 <trkpt lat="51.409514860" lon="6.700822320">
2659 <ele>21.950001399</ele>
2660 <time>2009-06-15T17:22:19.821Z</time>
2661 </trkpt>
2662 <trkpt lat="51.409496790" lon="6.700848150">
2663 <ele>22.060001373</ele>
2664 <time>2009-06-15T17:22:20.787Z</time>
2665 </trkpt>
2666 <trkpt lat="51.409434550" lon="6.700902930">
2667 <ele>22.380001450</ele>
2668 <time>2009-06-15T17:22:23.824Z</time>
2669 </trkpt>
2670 <trkpt lat="51.409380340" lon="6.700965480">
2671 <ele>22.696668116</ele>
2672 <time>2009-06-15T17:22:26.927Z</time>
2673 </trkpt>
2674 <trkpt lat="51.409355070" lon="6.700997580">
2675 <ele>22.810001500</ele>
2676 <time>2009-06-15T17:22:27.883Z</time>
2677 </trkpt>
2678 <trkpt lat="51.409298280" lon="6.701059900">
2679 <ele>23.161668142</ele>
2680 <time>2009-06-15T17:22:30.906Z</time>
2681 </trkpt>
2682 <trkpt lat="51.409269260" lon="6.701106660">
2683 <ele>23.398334757</ele>
2684 <time>2009-06-15T17:22:32.915Z</time>
2685 </trkpt>
2686 <trkpt lat="51.409249150" lon="6.701118640">
2687 <ele>23.577967628</ele>
2688 <time>2009-06-15T17:22:34.398Z</time>
2689 </trkpt>
2690 <trkpt lat="51.409216040" lon="6.701186080">
2691 <ele>23.711865959</ele>
2692 <time>2009-06-15T17:22:35.480Z</time>
2693 </trkpt>
2694 <trkpt lat="51.409176410" lon="6.701230150">
2695 <ele>24.001696441</ele>
2696 <time>2009-06-15T17:22:37.440Z</time>
2697 </trkpt>
2698 <trkpt lat="51.409127070" lon="6.701296000">
2699 <ele>24.420340587</ele>
2700 <time>2009-06-15T17:22:40.464Z</time>
2701 </trkpt>
2702 <trkpt lat="51.409112400" lon="6.701330770">
2703 <ele>24.547459231</ele>
2704 <time>2009-06-15T17:22:41.469Z</time>
2705 </trkpt>
2706 <trkpt lat="51.409053120" lon="6.701421670">
2707 <ele>24.913560900</ele>
2708 <time>2009-06-15T17:22:44.489Z</time>
2709 </trkpt>
2710 <trkpt lat="51.409004770" lon="6.701513470">
2711 <ele>25.220340535</ele>
2712 <time>2009-06-15T17:22:47.509Z</time>
2713 </trkpt>
2714 <trkpt lat="51.408991120" lon="6.701546780">
2715 <ele>25.300001629</ele>
2716 <time>2009-06-15T17:22:48.514Z</time>
2717 </trkpt>
2718 <trkpt lat="51.408956750" lon="6.701628800">
2719 <ele>25.525425410</ele>
2720 <time>2009-06-15T17:22:51.573Z</time>
2721 </trkpt>
2722 <trkpt lat="51.408950600" lon="6.701667510">
2723 <ele>25.586442333</ele>
2724 <time>2009-06-15T17:22:52.637Z</time>
2725 </trkpt>
2726 <trkpt lat="51.408932950" lon="6.701780360">
2727 <ele>25.747459412</ele>
2728 <time>2009-06-15T17:22:55.604Z</time>
2729 </trkpt>
2730 <trkpt lat="51.408923930" lon="6.701817540">
2731 <ele>25.772883140</ele>
2732 <time>2009-06-15T17:22:56.679Z</time>
2733 </trkpt>
2734 <trkpt lat="51.408908650" lon="6.701876360">
2735 <ele>25.810171224</ele>
2736 <time>2009-06-15T17:22:58.638Z</time>
2737 </trkpt>
2738 <trkpt lat="51.408883320" lon="6.701975280">
2739 <ele>25.830510026</ele>
2740 <time>2009-06-15T17:23:01.674Z</time>
2741 </trkpt>
2742 <trkpt lat="51.408863400" lon="6.702072820">
2743 <ele>25.789832034</ele>
2744 <time>2009-06-15T17:23:04.708Z</time>
2745 </trkpt>
2746 <trkpt lat="51.408838420" lon="6.702160680">
2747 <ele>25.725425203</ele>
2748 <time>2009-06-15T17:23:07.752Z</time>
2749 </trkpt>
2750 <trkpt lat="51.408817590" lon="6.702240880">
2751 <ele>25.618645361</ele>
2752 <time>2009-06-15T17:23:10.847Z</time>
2753 </trkpt>
2754 <trkpt lat="51.408819190" lon="6.702284130">
2755 <ele>25.513560538</ele>
2756 <time>2009-06-15T17:23:12.808Z</time>
2757 </trkpt>
2758 <trkpt lat="51.408819450" lon="6.702322090">
2759 <ele>25.457628412</ele>
2760 <time>2009-06-15T17:23:13.922Z</time>
2761 </trkpt>
2762 <trkpt lat="51.408821720" lon="6.702351930">
2763 <ele>25.403391175</ele>
2764 <time>2009-06-15T17:23:14.866Z</time>
2765 </trkpt>
2766 <trkpt lat="51.408833090" lon="6.702400040">
2767 <ele>25.305086039</ele>
2768 <time>2009-06-15T17:23:16.962Z</time>
2769 </trkpt>
2770 <trkpt lat="51.408842490" lon="6.702437110">
2771 <ele>25.208475792</ele>
2772 <time>2009-06-15T17:23:18.920Z</time>
2773 </trkpt>
2774 <trkpt lat="51.408859490" lon="6.702464440">
2775 <ele>25.122035140</ele>
2776 <time>2009-06-15T17:23:21.016Z</time>
2777 </trkpt>
2778 <trkpt lat="51.408879580" lon="6.702514690">
2779 <ele>24.996611385</ele>
2780 <time>2009-06-15T17:23:24.075Z</time>
2781 </trkpt>
2782 <trkpt lat="51.408893280" lon="6.702528710">
2783 <ele>24.954238504</ele>
2784 <time>2009-06-15T17:23:25.029Z</time>
2785 </trkpt>
2786 <trkpt lat="51.408919600" lon="6.702568810">
2787 <ele>24.811865726</ele>
2788 <time>2009-06-15T17:23:28.170Z</time>
2789 </trkpt>
2790 <trkpt lat="51.408939460" lon="6.702621740">
2791 <ele>24.645763979</ele>
2792 <time>2009-06-15T17:23:31.229Z</time>
2793 </trkpt>
2794 <trkpt lat="51.408963500" lon="6.702654490">
2795 <ele>24.496668116</ele>
2796 <time>2009-06-15T17:23:34.254Z</time>
2797 </trkpt>
2798 <trkpt lat="51.408964380" lon="6.702660710">
2799 <ele>24.426668040</ele>
2800 <time>2009-06-15T17:23:35.209Z</time>
2801 </trkpt>
2802 <trkpt lat="51.408998290" lon="6.702678490">
2803 <ele>24.353334681</ele>
2804 <time>2009-06-15T17:23:36.213Z</time>
2805 </trkpt>
2806 <trkpt lat="51.409018010" lon="6.702697250">
2807 <ele>24.190001297</ele>
2808 <time>2009-06-15T17:23:38.241Z</time>
2809 </trkpt>
2810 <trkpt lat="51.409044320" lon="6.702709440">
2811 <ele>24.106667964</ele>
2812 <time>2009-06-15T17:23:39.247Z</time>
2813 </trkpt>
2814 <trkpt lat="51.409067990" lon="6.702721780">
2815 <ele>24.025001272</ele>
2816 <time>2009-06-15T17:23:40.251Z</time>
2817 </trkpt>
2818 <trkpt lat="51.409097430" lon="6.702734280">
2819 <ele>23.948334503</ele>
2820 <time>2009-06-15T17:23:41.364Z</time>
2821 </trkpt>
2822 <trkpt lat="51.409206850" lon="6.702776460">
2823 <ele>23.758334605</ele>
2824 <time>2009-06-15T17:23:44.431Z</time>
2825 </trkpt>
2826 <trkpt lat="51.409298260" lon="6.702830350">
2827 <ele>23.596667989</ele>
2828 <time>2009-06-15T17:23:47.394Z</time>
2829 </trkpt>
2830 <trkpt lat="51.409326110" lon="6.702867360">
2831 <ele>23.498334630</ele>
2832 <time>2009-06-15T17:23:49.453Z</time>
2833 </trkpt>
2834 <trkpt lat="51.409338620" lon="6.702885720">
2835 <ele>23.448334630</ele>
2836 <time>2009-06-15T17:23:50.457Z</time>
2837 </trkpt>
2838 <trkpt lat="51.409350010" lon="6.702903930">
2839 <ele>23.395001221</ele>
2840 <time>2009-06-15T17:23:51.561Z</time>
2841 </trkpt>
2842 <trkpt lat="51.409355110" lon="6.702932110">
2843 <ele>23.245763876</ele>
2844 <time>2009-06-15T17:23:53.607Z</time>
2845 </trkpt>
2846 <trkpt lat="51.409374590" lon="6.702975850">
2847 <ele>23.196611307</ele>
2848 <time>2009-06-15T17:23:55.693Z</time>
2849 </trkpt>
2850 <trkpt lat="51.409373690" lon="6.702982900">
2851 <ele>23.218334452</ele>
2852 <time>2009-06-15T17:23:56.647Z</time>
2853 </trkpt>
2854 <trkpt lat="51.409382010" lon="6.703015720">
2855 <ele>23.223729926</ele>
2856 <time>2009-06-15T17:23:58.883Z</time>
2857 </trkpt>
2858 <trkpt lat="51.409382970" lon="6.703058460">
2859 <ele>23.250848544</ele>
2860 <time>2009-06-15T17:24:00.926Z</time>
2861 </trkpt>
2862 <trkpt lat="51.409412010" lon="6.703096690">
2863 <ele>23.247458765</ele>
2864 <time>2009-06-15T17:24:01.931Z</time>
2865 </trkpt>
2866 <trkpt lat="51.409434670" lon="6.703133590">
2867 <ele>23.240679078</ele>
2868 <time>2009-06-15T17:24:03.002Z</time>
2869 </trkpt>
2870 <trkpt lat="51.409476300" lon="6.703176790">
2871 <ele>23.232204502</ele>
2872 <time>2009-06-15T17:24:04.965Z</time>
2873 </trkpt>
2874 <trkpt lat="51.409495270" lon="6.703196460">
2875 <ele>23.218645257</ele>
2876 <time>2009-06-15T17:24:06.070Z</time>
2877 </trkpt>
2878 <trkpt lat="51.409511160" lon="6.703220920">
2879 <ele>23.200001216</ele>
2880 <time>2009-06-15T17:24:07.024Z</time>
2881 </trkpt>
2882 <trkpt lat="51.409521560" lon="6.703235560">
2883 <ele>23.169492819</ele>
2884 <time>2009-06-15T17:24:08.029Z</time>
2885 </trkpt>
2886 <trkpt lat="51.409526340" lon="6.703267400">
2887 <ele>23.125425048</ele>
2888 <time>2009-06-15T17:24:09.119Z</time>
2889 </trkpt>
2890 <trkpt lat="51.409538660" lon="6.703294610">
2891 <ele>23.074577590</ele>
2892 <time>2009-06-15T17:24:10.178Z</time>
2893 </trkpt>
2894 <trkpt lat="51.409544020" lon="6.703335490">
2895 <ele>23.016950575</ele>
2896 <time>2009-06-15T17:24:11.130Z</time>
2897 </trkpt>
2898 <trkpt lat="51.409563540" lon="6.703367090">
2899 <ele>22.954238762</ele>
2900 <time>2009-06-15T17:24:12.134Z</time>
2901 </trkpt>
2902 <trkpt lat="51.409581360" lon="6.703389410">
2903 <ele>22.891526950</ele>
2904 <time>2009-06-15T17:24:13.198Z</time>
2905 </trkpt>
2906 <trkpt lat="51.409603000" lon="6.703416940">
2907 <ele>22.813560874</ele>
2908 <time>2009-06-15T17:24:14.166Z</time>
2909 </trkpt>
2910 <trkpt lat="51.409628650" lon="6.703493330">
2911 <ele>22.649154017</ele>
2912 <time>2009-06-15T17:24:16.234Z</time>
2913 </trkpt>
2914 <trkpt lat="51.409647840" lon="6.703532740">
2915 <ele>22.564408254</ele>
2916 <time>2009-06-15T17:24:17.231Z</time>
2917 </trkpt>
2918 <trkpt lat="51.409668550" lon="6.703571720">
2919 <ele>22.474577823</ele>
2920 <time>2009-06-15T17:24:18.235Z</time>
2921 </trkpt>
2922 <trkpt lat="51.409693530" lon="6.703608510">
2923 <ele>22.372882908</ele>
2924 <time>2009-06-15T17:24:19.242Z</time>
2925 </trkpt>
2926 <trkpt lat="51.409735680" lon="6.703690830">
2927 <ele>22.137289597</ele>
2928 <time>2009-06-15T17:24:21.302Z</time>
2929 </trkpt>
2930 <trkpt lat="51.409757390" lon="6.703724420">
2931 <ele>22.000001487</ele>
2932 <time>2009-06-15T17:24:22.308Z</time>
2933 </trkpt>
2934 <trkpt lat="51.409813240" lon="6.703863430">
2935 <ele>21.527119976</ele>
2936 <time>2009-06-15T17:24:25.332Z</time>
2937 </trkpt>
2938 <trkpt lat="51.409818080" lon="6.703901300">
2939 <ele>21.349153810</ele>
2940 <time>2009-06-15T17:24:26.344Z</time>
2941 </trkpt>
2942 <trkpt lat="51.409841880" lon="6.703994260">
2943 <ele>20.750848673</ele>
2944 <time>2009-06-15T17:24:29.403Z</time>
2945 </trkpt>
2946 <trkpt lat="51.409862720" lon="6.704020270">
2947 <ele>20.535594423</ele>
2948 <time>2009-06-15T17:24:30.465Z</time>
2949 </trkpt>
2950 <trkpt lat="51.409887850" lon="6.704097020">
2951 <ele>20.105085987</ele>
2952 <time>2009-06-15T17:24:32.423Z</time>
2953 </trkpt>
2954 <trkpt lat="51.409891030" lon="6.704136320">
2955 <ele>19.889831672</ele>
2956 <time>2009-06-15T17:24:33.490Z</time>
2957 </trkpt>
2958 <trkpt lat="51.409917380" lon="6.704229550">
2959 <ele>19.252543498</ele>
2960 <time>2009-06-15T17:24:36.536Z</time>
2961 </trkpt>
2962 <trkpt lat="51.409943260" lon="6.704313460">
2963 <ele>18.644068831</ele>
2964 <time>2009-06-15T17:24:39.586Z</time>
2965 </trkpt>
2966 <trkpt lat="51.409965760" lon="6.704367960">
2967 <ele>18.274577319</ele>
2968 <time>2009-06-15T17:24:41.546Z</time>
2969 </trkpt>
2970 <trkpt lat="51.409981150" lon="6.704396500">
2971 <ele>18.094916263</ele>
2972 <time>2009-06-15T17:24:42.551Z</time>
2973 </trkpt>
2974 <trkpt lat="51.410012480" lon="6.704441590">
2975 <ele>17.742373903</ele>
2976 <time>2009-06-15T17:24:44.572Z</time>
2977 </trkpt>
2978 <trkpt lat="51.410036870" lon="6.704503220">
2979 <ele>17.254238258</ele>
2980 <time>2009-06-15T17:24:47.603Z</time>
2981 </trkpt>
2982 <trkpt lat="51.410047440" lon="6.704539580">
2983 <ele>16.955933199</ele>
2984 <time>2009-06-15T17:24:49.680Z</time>
2985 </trkpt>
2986 <trkpt lat="51.410056960" lon="6.704584830">
2987 <ele>16.681356915</ele>
2988 <time>2009-06-15T17:24:51.638Z</time>
2989 </trkpt>
2990 <trkpt lat="51.410065170" lon="6.704642520">
2991 <ele>16.294916250</ele>
2992 <time>2009-06-15T17:24:54.693Z</time>
2993 </trkpt>
2994 <trkpt lat="51.410082030" lon="6.704686390">
2995 <ele>16.152543343</ele>
2996 <time>2009-06-15T17:24:55.699Z</time>
2997 </trkpt>
2998 <trkpt lat="51.410094720" lon="6.704768010">
2999 <ele>15.871187372</ele>
3000 <time>2009-06-15T17:24:57.735Z</time>
3001 </trkpt>
3002 <trkpt lat="51.410140120" lon="6.704880060">
3003 <ele>15.646667608</ele>
3004 <time>2009-06-15T17:25:00.774Z</time>
3005 </trkpt>
3006 <trkpt lat="51.410185100" lon="6.704989810">
3007 <ele>15.313334274</ele>
3008 <time>2009-06-15T17:25:03.837Z</time>
3009 </trkpt>
3010 <trkpt lat="51.410195860" lon="6.705034290">
3011 <ele>15.236667633</ele>
3012 <time>2009-06-15T17:25:04.842Z</time>
3013 </trkpt>
3014 <trkpt lat="51.410225260" lon="6.705130070">
3015 <ele>15.068334325</ele>
3016 <time>2009-06-15T17:25:07.894Z</time>
3017 </trkpt>
3018 <trkpt lat="51.410237520" lon="6.705219530">
3019 <ele>14.980001068</ele>
3020 <time>2009-06-15T17:25:10.940Z</time>
3021 </trkpt>
3022 <trkpt lat="51.410260900" lon="6.705274970">
3023 <ele>14.950001017</ele>
3024 <time>2009-06-15T17:25:13.005Z</time>
3025 </trkpt>
3026 <trkpt lat="51.410271480" lon="6.705330430">
3027 <ele>14.941667684</ele>
3028 <time>2009-06-15T17:25:15.053Z</time>
3029 </trkpt>
3030 <trkpt lat="51.410302300" lon="6.705435350">
3031 <ele>14.956667837</ele>
3032 <time>2009-06-15T17:25:18.132Z</time>
3033 </trkpt>
3034 <trkpt lat="51.410300110" lon="6.705465600">
3035 <ele>14.973334503</ele>
3036 <time>2009-06-15T17:25:19.137Z</time>
3037 </trkpt>
3038 <trkpt lat="51.410305980" lon="6.705563900">
3039 <ele>15.116667875</ele>
3040 <time>2009-06-15T17:25:22.183Z</time>
3041 </trkpt>
3042 <trkpt lat="51.410296480" lon="6.705586830">
3043 <ele>15.186667951</ele>
3044 <time>2009-06-15T17:25:23.248Z</time>
3045 </trkpt>
3046 <trkpt lat="51.410315130" lon="6.705728590">
3047 <ele>15.520001221</ele>
3048 <time>2009-06-15T17:25:27.293Z</time>
3049 </trkpt>
3050 <trkpt lat="51.410321960" lon="6.705764980">
3051 <ele>15.621667926</ele>
3052 <time>2009-06-15T17:25:28.242Z</time>
3053 </trkpt>
3054 <trkpt lat="51.410354130" lon="6.705884060">
3055 <ele>15.963334592</ele>
3056 <time>2009-06-15T17:25:31.311Z</time>
3057 </trkpt>
3058 <trkpt lat="51.410370360" lon="6.705928330">
3059 <ele>16.065001233</ele>
3060 <time>2009-06-15T17:25:32.316Z</time>
3061 </trkpt>
3062 <trkpt lat="51.410372310" lon="6.705985530">
3063 <ele>16.163334529</ele>
3064 <time>2009-06-15T17:25:33.400Z</time>
3065 </trkpt>
3066 <trkpt lat="51.410370670" lon="6.706011600">
3067 <ele>16.275001272</ele>
3068 <time>2009-06-15T17:25:34.355Z</time>
3069 </trkpt>
3070 <trkpt lat="51.410372790" lon="6.706042130">
3071 <ele>16.381668027</ele>
3072 <time>2009-06-15T17:25:35.359Z</time>
3073 </trkpt>
3074 <trkpt lat="51.410380590" lon="6.706082410">
3075 <ele>16.498334630</ele>
3076 <time>2009-06-15T17:25:36.365Z</time>
3077 </trkpt>
3078 <trkpt lat="51.410375610" lon="6.706115050">
3079 <ele>16.620001284</ele>
3080 <time>2009-06-15T17:25:37.460Z</time>
3081 </trkpt>
3082 <trkpt lat="51.410376100" lon="6.706206100">
3083 <ele>16.875001272</ele>
3084 <time>2009-06-15T17:25:39.469Z</time>
3085 </trkpt>
3086 <trkpt lat="51.410367580" lon="6.706264920">
3087 <ele>17.118334579</ele>
3088 <time>2009-06-15T17:25:41.429Z</time>
3089 </trkpt>
3090 <trkpt lat="51.410367460" lon="6.706367570">
3091 <ele>17.473334567</ele>
3092 <time>2009-06-15T17:25:44.463Z</time>
3093 </trkpt>
3094 <trkpt lat="51.410366240" lon="6.706471180">
3095 <ele>17.793334707</ele>
3096 <time>2009-06-15T17:25:47.499Z</time>
3097 </trkpt>
3098 <trkpt lat="51.410371390" lon="6.706506230">
3099 <ele>17.890001361</ele>
3100 <time>2009-06-15T17:25:48.504Z</time>
3101 </trkpt>
3102 <trkpt lat="51.410374520" lon="6.706527170">
3103 <ele>17.986668078</ele>
3104 <time>2009-06-15T17:25:49.590Z</time>
3105 </trkpt>
3106 <trkpt lat="51.410401040" lon="6.706597910">
3107 <ele>18.135001437</ele>
3108 <time>2009-06-15T17:25:51.550Z</time>
3109 </trkpt>
3110 <trkpt lat="51.410411960" lon="6.706660390">
3111 <ele>18.176668167</ele>
3112 <time>2009-06-15T17:25:52.583Z</time>
3113 </trkpt>
3114 <trkpt lat="51.410413350" lon="6.706691680">
3115 <ele>18.210001564</ele>
3116 <time>2009-06-15T17:25:53.684Z</time>
3117 </trkpt>
3118 <trkpt lat="51.410428020" lon="6.706834500">
3119 <ele>18.238334974</ele>
3120 <time>2009-06-15T17:25:56.723Z</time>
3121 </trkpt>
3122 <trkpt lat="51.410431060" lon="6.706995960">
3123 <ele>18.103335063</ele>
3124 <time>2009-06-15T17:25:59.770Z</time>
3125 </trkpt>
3126 <trkpt lat="51.410416730" lon="6.707053920">
3127 <ele>17.945001666</ele>
3128 <time>2009-06-15T17:26:01.730Z</time>
3129 </trkpt>
3130 <trkpt lat="51.410402700" lon="6.707068410">
3131 <ele>17.876668294</ele>
3132 <time>2009-06-15T17:26:02.738Z</time>
3133 </trkpt>
3134 <trkpt lat="51.410385950" lon="6.707078410">
3135 <ele>17.801668294</ele>
3136 <time>2009-06-15T17:26:03.804Z</time>
3137 </trkpt>
3138 <trkpt lat="51.410364950" lon="6.707092610">
3139 <ele>17.718334961</ele>
3140 <time>2009-06-15T17:26:04.757Z</time>
3141 </trkpt>
3142 <trkpt lat="51.410348500" lon="6.707105200">
3143 <ele>17.623334885</ele>
3144 <time>2009-06-15T17:26:05.762Z</time>
3145 </trkpt>
3146 <trkpt lat="51.410290100" lon="6.707146220">
3147 <ele>17.303334872</ele>
3148 <time>2009-06-15T17:26:08.802Z</time>
3149 </trkpt>
3150 <trkpt lat="51.410245860" lon="6.707158440">
3151 <ele>17.086668078</ele>
3152 <time>2009-06-15T17:26:10.850Z</time>
3153 </trkpt>
3154 <trkpt lat="51.410218300" lon="6.707165940">
3155 <ele>16.983334732</ele>
3156 <time>2009-06-15T17:26:11.856Z</time>
3157 </trkpt>
3158 <trkpt lat="51.410139670" lon="6.707192060">
3159 <ele>16.663334656</ele>
3160 <time>2009-06-15T17:26:14.924Z</time>
3161 </trkpt>
3162 <trkpt lat="51.410053750" lon="6.707211190">
3163 <ele>16.193334579</ele>
3164 <time>2009-06-15T17:26:17.981Z</time>
3165 </trkpt>
3166 <trkpt lat="51.409981180" lon="6.707223310">
3167 <ele>15.715001233</ele>
3168 <time>2009-06-15T17:26:21.026Z</time>
3169 </trkpt>
3170 <trkpt lat="51.409904210" lon="6.707224920">
3171 <ele>15.250001144</ele>
3172 <time>2009-06-15T17:26:24.075Z</time>
3173 </trkpt>
3174 <trkpt lat="51.409834830" lon="6.707229950">
3175 <ele>14.838334465</ele>
3176 <time>2009-06-15T17:26:27.118Z</time>
3177 </trkpt>
3178 <trkpt lat="51.409776970" lon="6.707237440">
3179 <ele>14.450001144</ele>
3180 <time>2009-06-15T17:26:30.202Z</time>
3181 </trkpt>
3182 <trkpt lat="51.409713570" lon="6.707245840">
3183 <ele>14.145001221</ele>
3184 <time>2009-06-15T17:26:33.358Z</time>
3185 </trkpt>
3186 <trkpt lat="51.409606320" lon="6.707268320">
3187 <ele>13.781667900</ele>
3188 <time>2009-06-15T17:26:37.397Z</time>
3189 </trkpt>
3190 <trkpt lat="51.409542980" lon="6.707274410">
3191 <ele>13.480001322</ele>
3192 <time>2009-06-15T17:26:40.415Z</time>
3193 </trkpt>
3194 <trkpt lat="51.409483360" lon="6.707284940">
3195 <ele>13.141668002</ele>
3196 <time>2009-06-15T17:26:43.468Z</time>
3197 </trkpt>
3198 <trkpt lat="51.409453410" lon="6.707281380">
3199 <ele>13.023334630</ele>
3200 <time>2009-06-15T17:26:44.422Z</time>
3201 </trkpt>
3202 <trkpt lat="51.409386270" lon="6.707281020">
3203 <ele>12.537289312</ele>
3204 <time>2009-06-15T17:26:47.548Z</time>
3205 </trkpt>
3206 <trkpt lat="51.409346940" lon="6.707298250">
3207 <ele>12.451667913</ele>
3208 <time>2009-06-15T17:26:49.506Z</time>
3209 </trkpt>
3210 <trkpt lat="51.409305010" lon="6.707305260">
3211 <ele>12.245001157</ele>
3212 <time>2009-06-15T17:26:51.547Z</time>
3213 </trkpt>
3214 <trkpt lat="51.409259810" lon="6.707306590">
3215 <ele>12.101667722</ele>
3216 <time>2009-06-15T17:26:53.623Z</time>
3217 </trkpt>
3218 <trkpt lat="51.409193430" lon="6.707314020">
3219 <ele>11.948334249</ele>
3220 <time>2009-06-15T17:26:56.677Z</time>
3221 </trkpt>
3222 <trkpt lat="51.409155570" lon="6.707305520">
3223 <ele>11.891667557</ele>
3224 <time>2009-06-15T17:26:58.635Z</time>
3225 </trkpt>
3226 <trkpt lat="51.409104700" lon="6.707294020">
3227 <ele>11.920000903</ele>
3228 <time>2009-06-15T17:27:00.705Z</time>
3229 </trkpt>
3230 <trkpt lat="51.409028670" lon="6.707276520">
3231 <ele>12.015000916</ele>
3232 <time>2009-06-15T17:27:03.691Z</time>
3233 </trkpt>
3234 <trkpt lat="51.408959420" lon="6.707269040">
3235 <ele>12.113334211</ele>
3236 <time>2009-06-15T17:27:06.757Z</time>
3237 </trkpt>
3238 <trkpt lat="51.408918980" lon="6.707276960">
3239 <ele>12.181667519</ele>
3240 <time>2009-06-15T17:27:08.736Z</time>
3241 </trkpt>
3242 <trkpt lat="51.408905200" lon="6.707289450">
3243 <ele>12.226667531</ele>
3244 <time>2009-06-15T17:27:09.803Z</time>
3245 </trkpt>
3246 <trkpt lat="51.408843220" lon="6.707283780">
3247 <ele>12.370000903</ele>
3248 <time>2009-06-15T17:27:12.819Z</time>
3249 </trkpt>
3250 <trkpt lat="51.408821730" lon="6.707284100">
3251 <ele>12.423334185</ele>
3252 <time>2009-06-15T17:27:13.773Z</time>
3253 </trkpt>
3254 <trkpt lat="51.408772570" lon="6.707293690">
3255 <ele>12.546667544</ele>
3256 <time>2009-06-15T17:27:15.784Z</time>
3257 </trkpt>
3258 <trkpt lat="51.408706160" lon="6.707309260">
3259 <ele>12.856667582</ele>
3260 <time>2009-06-15T17:27:18.850Z</time>
3261 </trkpt>
3262 <trkpt lat="51.408651890" lon="6.707307930">
3263 <ele>13.060000865</ele>
3264 <time>2009-06-15T17:27:20.891Z</time>
3265 </trkpt>
3266 <trkpt lat="51.408585900" lon="6.707297890">
3267 <ele>13.296667544</ele>
3268 <time>2009-06-15T17:27:23.938Z</time>
3269 </trkpt>
3270 <trkpt lat="51.408516420" lon="6.707284740">
3271 <ele>13.545763630</ele>
3272 <time>2009-06-15T17:27:27.124Z</time>
3273 </trkpt>
3274 <trkpt lat="51.408426970" lon="6.707281890">
3275 <ele>13.801695808</ele>
3276 <time>2009-06-15T17:27:31.173Z</time>
3277 </trkpt>
3278 <trkpt lat="51.408395400" lon="6.707290390">
3279 <ele>13.871667544</ele>
3280 <time>2009-06-15T17:27:33.208Z</time>
3281 </trkpt>
3282 <trkpt lat="51.408378300" lon="6.707298960">
3283 <ele>13.925000827</ele>
3284 <time>2009-06-15T17:27:34.159Z</time>
3285 </trkpt>
3286 <trkpt lat="51.408328910" lon="6.707308970">
3287 <ele>14.075000763</ele>
3288 <time>2009-06-15T17:27:37.199Z</time>
3289 </trkpt>
3290 <trkpt lat="51.408306200" lon="6.707308640">
3291 <ele>14.116667430</ele>
3292 <time>2009-06-15T17:27:38.238Z</time>
3293 </trkpt>
3294 <trkpt lat="51.408242360" lon="6.707313740">
3295 <ele>14.246667417</ele>
3296 <time>2009-06-15T17:27:41.270Z</time>
3297 </trkpt>
3298 <trkpt lat="51.408136870" lon="6.707309580">
3299 <ele>14.460000801</ele>
3300 <time>2009-06-15T17:27:45.380Z</time>
3301 </trkpt>
3302 <trkpt lat="51.408042590" lon="6.707309570">
3303 <ele>14.616667430</ele>
3304 <time>2009-06-15T17:27:48.405Z</time>
3305 </trkpt>
3306 <trkpt lat="51.408007280" lon="6.707308670">
3307 <ele>14.713334020</ele>
3308 <time>2009-06-15T17:27:50.454Z</time>
3309 </trkpt>
3310 <trkpt lat="51.407953580" lon="6.707303380">
3311 <ele>14.830000750</ele>
3312 <time>2009-06-15T17:27:53.493Z</time>
3313 </trkpt>
3314 <trkpt lat="51.407896280" lon="6.707290260">
3315 <ele>14.956667391</ele>
3316 <time>2009-06-15T17:27:56.532Z</time>
3317 </trkpt>
3318 <trkpt lat="51.407831970" lon="6.707283350">
3319 <ele>15.136667442</ele>
3320 <time>2009-06-15T17:27:59.580Z</time>
3321 </trkpt>
3322 <trkpt lat="51.407768710" lon="6.707282460">
3323 <ele>15.298334185</ele>
3324 <time>2009-06-15T17:28:02.645Z</time>
3325 </trkpt>
3326 <trkpt lat="51.407720400" lon="6.707288560">
3327 <ele>15.530509302</ele>
3328 <time>2009-06-15T17:28:05.720Z</time>
3329 </trkpt>
3330 <trkpt lat="51.407695440" lon="6.707303680">
3331 <ele>15.661667506</ele>
3332 <time>2009-06-15T17:28:07.680Z</time>
3333 </trkpt>
3334 <trkpt lat="51.407681440" lon="6.707317240">
3335 <ele>15.771187281</ele>
3336 <time>2009-06-15T17:28:08.771Z</time>
3337 </trkpt>
3338 <trkpt lat="51.407629130" lon="6.707319370">
3339 <ele>16.003390684</ele>
3340 <time>2009-06-15T17:28:11.816Z</time>
3341 </trkpt>
3342 <trkpt lat="51.407592460" lon="6.707324870">
3343 <ele>16.144068766</ele>
3344 <time>2009-06-15T17:28:13.776Z</time>
3345 </trkpt>
3346 <trkpt lat="51.407545540" lon="6.707335200">
3347 <ele>16.321667735</ele>
3348 <time>2009-06-15T17:28:16.838Z</time>
3349 </trkpt>
3350 <trkpt lat="51.407520000" lon="6.707320050">
3351 <ele>16.395001030</ele>
3352 <time>2009-06-15T17:28:17.843Z</time>
3353 </trkpt>
3354 <trkpt lat="51.407454950" lon="6.707326030">
3355 <ele>16.633899430</ele>
3356 <time>2009-06-15T17:28:20.918Z</time>
3357 </trkpt>
3358 <trkpt lat="51.407397690" lon="6.707335700">
3359 <ele>16.877967253</ele>
3360 <time>2009-06-15T17:28:23.963Z</time>
3361 </trkpt>
3362 <trkpt lat="51.407369920" lon="6.707336230">
3363 <ele>17.033899469</ele>
3364 <time>2009-06-15T17:28:26.039Z</time>
3365 </trkpt>
3366 <trkpt lat="51.407335110" lon="6.707325580">
3367 <ele>17.140001233</ele>
3368 <time>2009-06-15T17:28:27.999Z</time>
3369 </trkpt>
3370 <trkpt lat="51.407261410" lon="6.707311440">
3371 <ele>17.365001233</ele>
3372 <time>2009-06-15T17:28:31.021Z</time>
3373 </trkpt>
3374 <trkpt lat="51.407220560" lon="6.707288900">
3375 <ele>17.430001322</ele>
3376 <time>2009-06-15T17:28:32.104Z</time>
3377 </trkpt>
3378 <trkpt lat="51.407149430" lon="6.707266180">
3379 <ele>17.563334656</ele>
3380 <time>2009-06-15T17:28:34.064Z</time>
3381 </trkpt>
3382 <trkpt lat="51.407057870" lon="6.707238480">
3383 <ele>17.788334719</ele>
3384 <time>2009-06-15T17:28:37.101Z</time>
3385 </trkpt>
3386 <trkpt lat="51.406972120" lon="6.707211420">
3387 <ele>17.985001373</ele>
3388 <time>2009-06-15T17:28:40.128Z</time>
3389 </trkpt>
3390 <trkpt lat="51.406942970" lon="6.707217530">
3391 <ele>18.043334707</ele>
3392 <time>2009-06-15T17:28:41.133Z</time>
3393 </trkpt>
3394 <trkpt lat="51.406896860" lon="6.707227910">
3395 <ele>18.141668002</ele>
3396 <time>2009-06-15T17:28:43.166Z</time>
3397 </trkpt>
3398 <trkpt lat="51.406879580" lon="6.707240460">
3399 <ele>18.183334732</ele>
3400 <time>2009-06-15T17:28:44.172Z</time>
3401 </trkpt>
3402 <trkpt lat="51.406857870" lon="6.707261190">
3403 <ele>18.215001424</ele>
3404 <time>2009-06-15T17:28:45.268Z</time>
3405 </trkpt>
3406 <trkpt lat="51.406851660" lon="6.707266480">
3407 <ele>18.241668065</ele>
3408 <time>2009-06-15T17:28:46.223Z</time>
3409 </trkpt>
3410 <trkpt lat="51.406830480" lon="6.707282330">
3411 <ele>18.261668142</ele>
3412 <time>2009-06-15T17:28:47.228Z</time>
3413 </trkpt>
3414 <trkpt lat="51.406797130" lon="6.707296370">
3415 <ele>18.280001450</ele>
3416 <time>2009-06-15T17:28:49.269Z</time>
3417 </trkpt>
3418 <trkpt lat="51.406753800" lon="6.707331400">
3419 <ele>18.213334783</ele>
3420 <time>2009-06-15T17:28:52.355Z</time>
3421 </trkpt>
3422 <trkpt lat="51.406747460" lon="6.707349260">
3423 <ele>18.145001475</ele>
3424 <time>2009-06-15T17:28:53.302Z</time>
3425 </trkpt>
3426 <trkpt lat="51.406711790" lon="6.707341300">
3427 <ele>17.961668142</ele>
3428 <time>2009-06-15T17:28:55.376Z</time>
3429 </trkpt>
3430 <trkpt lat="51.406654690" lon="6.707325930">
3431 <ele>17.840001488</ele>
3432 <time>2009-06-15T17:28:56.327Z</time>
3433 </trkpt>
3434 <trkpt lat="51.406602000" lon="6.707305760">
3435 <ele>17.548334821</ele>
3436 <time>2009-06-15T17:28:58.362Z</time>
3437 </trkpt>
3438 <trkpt lat="51.406568710" lon="6.707308320">
3439 <ele>17.386668142</ele>
3440 <time>2009-06-15T17:28:59.363Z</time>
3441 </trkpt>
3442 <trkpt lat="51.406517700" lon="6.707321170">
3443 <ele>17.078334808</ele>
3444 <time>2009-06-15T17:29:01.374Z</time>
3445 </trkpt>
3446 <trkpt lat="51.406431280" lon="6.707350000">
3447 <ele>16.683334668</ele>
3448 <time>2009-06-15T17:29:04.437Z</time>
3449 </trkpt>
3450 <trkpt lat="51.406408040" lon="6.707357740">
3451 <ele>16.553334681</ele>
3452 <time>2009-06-15T17:29:05.650Z</time>
3453 </trkpt>
3454 <trkpt lat="51.406379540" lon="6.707353940">
3455 <ele>16.411668015</ele>
3456 <time>2009-06-15T17:29:06.655Z</time>
3457 </trkpt>
3458 <trkpt lat="51.406360170" lon="6.707356410">
3459 <ele>16.275001399</ele>
3460 <time>2009-06-15T17:29:07.660Z</time>
3461 </trkpt>
3462 <trkpt lat="51.406308160" lon="6.707358150">
3463 <ele>15.846667926</ele>
3464 <time>2009-06-15T17:29:10.724Z</time>
3465 </trkpt>
3466 <trkpt lat="51.406242790" lon="6.707369210">
3467 <ele>15.393334579</ele>
3468 <time>2009-06-15T17:29:13.750Z</time>
3469 </trkpt>
3470 <trkpt lat="51.406167320" lon="6.707376540">
3471 <ele>14.850001144</ele>
3472 <time>2009-06-15T17:29:16.781Z</time>
3473 </trkpt>
3474 <trkpt lat="51.406120390" lon="6.707362120">
3475 <ele>14.440001170</ele>
3476 <time>2009-06-15T17:29:18.887Z</time>
3477 </trkpt>
3478 <trkpt lat="51.406078320" lon="6.707345050">
3479 <ele>14.030001005</ele>
3480 <time>2009-06-15T17:29:20.836Z</time>
3481 </trkpt>
3482 <trkpt lat="51.406021790" lon="6.707313430">
3483 <ele>13.621667671</ele>
3484 <time>2009-06-15T17:29:22.934Z</time>
3485 </trkpt>
3486 <trkpt lat="51.405960220" lon="6.707302710">
3487 <ele>13.205001005</ele>
3488 <time>2009-06-15T17:29:24.893Z</time>
3489 </trkpt>
3490 <trkpt lat="51.405930480" lon="6.707299250">
3491 <ele>12.995001030</ele>
3492 <time>2009-06-15T17:29:25.967Z</time>
3493 </trkpt>
3494 <trkpt lat="51.405855940" lon="6.707297310">
3495 <ele>12.361667633</ele>
3496 <time>2009-06-15T17:29:29.008Z</time>
3497 </trkpt>
3498 <trkpt lat="51.405830980" lon="6.707300160">
3499 <ele>12.141667684</ele>
3500 <time>2009-06-15T17:29:29.961Z</time>
3501 </trkpt>
3502 <trkpt lat="51.405811150" lon="6.707297780">
3503 <ele>11.923334312</ele>
3504 <time>2009-06-15T17:29:30.966Z</time>
3505 </trkpt>
3506 <trkpt lat="51.405747040" lon="6.707285320">
3507 <ele>11.275000890</ele>
3508 <time>2009-06-15T17:29:34.004Z</time>
3509 </trkpt>
3510 <trkpt lat="51.405688870" lon="6.707276630">
3511 <ele>10.596667480</ele>
3512 <time>2009-06-15T17:29:37.025Z</time>
3513 </trkpt>
3514 <trkpt lat="51.405658060" lon="6.707278350">
3515 <ele>10.153334173</ele>
3516 <time>2009-06-15T17:29:39.134Z</time>
3517 </trkpt>
3518 <trkpt lat="51.405619670" lon="6.707284160">
3519 <ele>9.716667493</ele>
3520 <time>2009-06-15T17:29:41.093Z</time>
3521 </trkpt>
3522 <trkpt lat="51.405560020" lon="6.707285500">
3523 <ele>9.036667506</ele>
3524 <time>2009-06-15T17:29:44.119Z</time>
3525 </trkpt>
3526 <trkpt lat="51.405519120" lon="6.707280260">
3527 <ele>8.565000725</ele>
3528 <time>2009-06-15T17:29:46.223Z</time>
3529 </trkpt>
3530 <trkpt lat="51.405478730" lon="6.707266520">
3531 <ele>8.110000674</ele>
3532 <time>2009-06-15T17:29:48.180Z</time>
3533 </trkpt>
3534 <trkpt lat="51.405432790" lon="6.707237280">
3535 <ele>7.670000712</ele>
3536 <time>2009-06-15T17:29:50.209Z</time>
3537 </trkpt>
3538 <trkpt lat="51.405388380" lon="6.707208090">
3539 <ele>7.271667417</ele>
3540 <time>2009-06-15T17:29:52.228Z</time>
3541 </trkpt>
3542 <trkpt lat="51.405363840" lon="6.707196060">
3543 <ele>7.120000776</ele>
3544 <time>2009-06-15T17:29:53.228Z</time>
3545 </trkpt>
3546 <trkpt lat="51.405292370" lon="6.707154730">
3547 <ele>6.903334109</ele>
3548 <time>2009-06-15T17:29:55.238Z</time>
3549 </trkpt>
3550 <trkpt lat="51.405244910" lon="6.707126410">
3551 <ele>6.771667353</ele>
3552 <time>2009-06-15T17:29:57.271Z</time>
3553 </trkpt>
3554 <trkpt lat="51.405232670" lon="6.707124460">
3555 <ele>6.721667353</ele>
3556 <time>2009-06-15T17:29:58.279Z</time>
3557 </trkpt>
3558 <trkpt lat="51.405197110" lon="6.707113010">
3559 <ele>6.693221011</ele>
3560 <time>2009-06-15T17:29:59.377Z</time>
3561 </trkpt>
3562 <trkpt lat="51.405172190" lon="6.707114250">
3563 <ele>6.683334033</ele>
3564 <time>2009-06-15T17:30:01.337Z</time>
3565 </trkpt>
3566 <trkpt lat="51.405147710" lon="6.707105070">
3567 <ele>6.651667404</ele>
3568 <time>2009-06-15T17:30:02.422Z</time>
3569 </trkpt>
3570 <trkpt lat="51.405093210" lon="6.707074960">
3571 <ele>6.536667379</ele>
3572 <time>2009-06-15T17:30:04.381Z</time>
3573 </trkpt>
3574 <trkpt lat="51.405043310" lon="6.707062820">
3575 <ele>6.383334096</ele>
3576 <time>2009-06-15T17:30:06.458Z</time>
3577 </trkpt>
3578 <trkpt lat="51.405022890" lon="6.707061950">
3579 <ele>6.308334096</ele>
3580 <time>2009-06-15T17:30:07.413Z</time>
3581 </trkpt>
3582 <trkpt lat="51.404965010" lon="6.707059450">
3583 <ele>6.143334071</ele>
3584 <time>2009-06-15T17:30:09.520Z</time>
3585 </trkpt>
3586 <trkpt lat="51.404921560" lon="6.707047600">
3587 <ele>5.966667430</ele>
3588 <time>2009-06-15T17:30:11.480Z</time>
3589 </trkpt>
3590 <trkpt lat="51.404859070" lon="6.707039570">
3591 <ele>5.738334084</ele>
3592 <time>2009-06-15T17:30:14.514Z</time>
3593 </trkpt>
3594 <trkpt lat="51.404817870" lon="6.707021630">
3595 <ele>5.625000699</ele>
3596 <time>2009-06-15T17:30:16.630Z</time>
3597 </trkpt>
3598 <trkpt lat="51.404771250" lon="6.707030210">
3599 <ele>5.543334071</ele>
3600 <time>2009-06-15T17:30:18.599Z</time>
3601 </trkpt>
3602 <trkpt lat="51.404751000" lon="6.707020530">
3603 <ele>5.508334033</ele>
3604 <time>2009-06-15T17:30:19.666Z</time>
3605 </trkpt>
3606 <trkpt lat="51.404685460" lon="6.707009390">
3607 <ele>5.376667468</ele>
3608 <time>2009-06-15T17:30:22.720Z</time>
3609 </trkpt>
3610 <trkpt lat="51.404662240" lon="6.707015840">
3611 <ele>5.318334134</ele>
3612 <time>2009-06-15T17:30:23.808Z</time>
3613 </trkpt>
3614 <trkpt lat="51.404607030" lon="6.707002830">
3615 <ele>5.140000788</ele>
3616 <time>2009-06-15T17:30:26.861Z</time>
3617 </trkpt>
3618 <trkpt lat="51.404583170" lon="6.706992090">
3619 <ele>5.088334147</ele>
3620 <time>2009-06-15T17:30:27.828Z</time>
3621 </trkpt>
3622 <trkpt lat="51.404506850" lon="6.706956050">
3623 <ele>4.930000750</ele>
3624 <time>2009-06-15T17:30:30.862Z</time>
3625 </trkpt>
3626 <trkpt lat="51.404437070" lon="6.706919330">
3627 <ele>4.788334084</ele>
3628 <time>2009-06-15T17:30:33.915Z</time>
3629 </trkpt>
3630 <trkpt lat="51.404375420" lon="6.706886440">
3631 <ele>4.643334071</ele>
3632 <time>2009-06-15T17:30:37.003Z</time>
3633 </trkpt>
3634 <trkpt lat="51.404318340" lon="6.706881670">
3635 <ele>4.531667391</ele>
3636 <time>2009-06-15T17:30:38.963Z</time>
3637 </trkpt>
3638 <trkpt lat="51.404295330" lon="6.706879860">
3639 <ele>4.475000699</ele>
3640 <time>2009-06-15T17:30:40.065Z</time>
3641 </trkpt>
3642 <trkpt lat="51.404228910" lon="6.706874940">
3643 <ele>4.313334020</ele>
3644 <time>2009-06-15T17:30:43.097Z</time>
3645 </trkpt>
3646 <trkpt lat="51.404141280" lon="6.706859630">
3647 <ele>4.106667391</ele>
3648 <time>2009-06-15T17:30:47.159Z</time>
3649 </trkpt>
3650 <trkpt lat="51.404072500" lon="6.706851230">
3651 <ele>3.941667430</ele>
3652 <time>2009-06-15T17:30:50.177Z</time>
3653 </trkpt>
3654 <trkpt lat="51.404007130" lon="6.706842340">
3655 <ele>3.767797373</ele>
3656 <time>2009-06-15T17:30:53.236Z</time>
3657 </trkpt>
3658 <trkpt lat="51.403967220" lon="6.706833650">
3659 <ele>3.653334109</ele>
3660 <time>2009-06-15T17:30:55.217Z</time>
3661 </trkpt>
3662 <trkpt lat="51.403914230" lon="6.706835330">
3663 <ele>3.406667519</ele>
3664 <time>2009-06-15T17:30:58.251Z</time>
3665 </trkpt>
3666 <trkpt lat="51.403857060" lon="6.706831560">
3667 <ele>3.128334173</ele>
3668 <time>2009-06-15T17:31:01.280Z</time>
3669 </trkpt>
3670 <trkpt lat="51.403788540" lon="6.706818720">
3671 <ele>2.891526238</ele>
3672 <time>2009-06-15T17:31:03.377Z</time>
3673 </trkpt>
3674 <trkpt lat="51.403717160" lon="6.706806760">
3675 <ele>2.708334160</ele>
3676 <time>2009-06-15T17:31:06.339Z</time>
3677 </trkpt>
3678 <trkpt lat="51.403667710" lon="6.706815300">
3679 <ele>2.581667455</ele>
3680 <time>2009-06-15T17:31:08.385Z</time>
3681 </trkpt>
3682 <trkpt lat="51.403594760" lon="6.706804960">
3683 <ele>2.463334147</ele>
3684 <time>2009-06-15T17:31:11.446Z</time>
3685 </trkpt>
3686 <trkpt lat="51.403562200" lon="6.706790630">
3687 <ele>2.451667468</ele>
3688 <time>2009-06-15T17:31:12.449Z</time>
3689 </trkpt>
3690 <trkpt lat="51.403503960" lon="6.706780100">
3691 <ele>2.410000865</ele>
3692 <time>2009-06-15T17:31:15.491Z</time>
3693 </trkpt>
3694 <trkpt lat="51.403476450" lon="6.706788840">
3695 <ele>2.398334185</ele>
3696 <time>2009-06-15T17:31:16.527Z</time>
3697 </trkpt>
3698 <trkpt lat="51.403460040" lon="6.706825080">
3699 <ele>2.416667557</ele>
3700 <time>2009-06-15T17:31:17.532Z</time>
3701 </trkpt>
3702 <trkpt lat="51.403441320" lon="6.706849530">
3703 <ele>2.440000916</ele>
3704 <time>2009-06-15T17:31:18.537Z</time>
3705 </trkpt>
3706 <trkpt lat="51.403421210" lon="6.706868070">
3707 <ele>2.471667544</ele>
3708 <time>2009-06-15T17:31:19.600Z</time>
3709 </trkpt>
3710 <trkpt lat="51.403383580" lon="6.706876350">
3711 <ele>2.523334249</ele>
3712 <time>2009-06-15T17:31:20.583Z</time>
3713 </trkpt>
3714 <trkpt lat="51.403333260" lon="6.706861060">
3715 <ele>2.611667569</ele>
3716 <time>2009-06-15T17:31:21.588Z</time>
3717 </trkpt>
3718 <trkpt lat="51.403298310" lon="6.706856920">
3719 <ele>2.738334211</ele>
3720 <time>2009-06-15T17:31:22.593Z</time>
3721 </trkpt>
3722 <trkpt lat="51.403256260" lon="6.706857050">
3723 <ele>2.895000839</ele>
3724 <time>2009-06-15T17:31:23.659Z</time>
3725 </trkpt>
3726 <trkpt lat="51.403181370" lon="6.706863640">
3727 <ele>3.441667493</ele>
3728 <time>2009-06-15T17:31:26.701Z</time>
3729 </trkpt>
3730 <trkpt lat="51.403163430" lon="6.706872010">
3731 <ele>3.616667493</ele>
3732 <time>2009-06-15T17:31:27.655Z</time>
3733 </trkpt>
3734 <trkpt lat="51.403111480" lon="6.706891950">
3735 <ele>3.961667442</ele>
3736 <time>2009-06-15T17:31:29.748Z</time>
3737 </trkpt>
3738 <trkpt lat="51.403036710" lon="6.706904670">
3739 <ele>4.455000814</ele>
3740 <time>2009-06-15T17:31:32.714Z</time>
3741 </trkpt>
3742 <trkpt lat="51.403013070" lon="6.706908630">
3743 <ele>4.611667506</ele>
3744 <time>2009-06-15T17:31:33.794Z</time>
3745 </trkpt>
3746 <trkpt lat="51.402942030" lon="6.706909000">
3747 <ele>5.091667493</ele>
3748 <time>2009-06-15T17:31:36.986Z</time>
3749 </trkpt>
3750 <trkpt lat="51.402870990" lon="6.706898180">
3751 <ele>5.596667544</ele>
3752 <time>2009-06-15T17:31:40.046Z</time>
3753 </trkpt>
3754 <trkpt lat="51.402767030" lon="6.706876510">
3755 <ele>6.422034829</ele>
3756 <time>2009-06-15T17:31:44.094Z</time>
3757 </trkpt>
3758 <trkpt lat="51.402704980" lon="6.706873320">
3759 <ele>7.076272092</ele>
3760 <time>2009-06-15T17:31:47.245Z</time>
3761 </trkpt>
3762 <trkpt lat="51.402679060" lon="6.706878390">
3763 <ele>7.195000903</ele>
3764 <time>2009-06-15T17:31:48.083Z</time>
3765 </trkpt>
3766 <trkpt lat="51.402635820" lon="6.706883880">
3767 <ele>7.645000903</ele>
3768 <time>2009-06-15T17:31:50.149Z</time>
3769 </trkpt>
3770 <trkpt lat="51.402593870" lon="6.706891180">
3771 <ele>8.115000852</ele>
3772 <time>2009-06-15T17:31:52.108Z</time>
3773 </trkpt>
3774 <trkpt lat="51.402538890" lon="6.706899730">
3775 <ele>8.838334147</ele>
3776 <time>2009-06-15T17:31:55.128Z</time>
3777 </trkpt>
3778 <trkpt lat="51.402484370" lon="6.706909260">
3779 <ele>9.580000750</ele>
3780 <time>2009-06-15T17:31:58.156Z</time>
3781 </trkpt>
3782 <trkpt lat="51.402404230" lon="6.706913620">
3783 <ele>10.375000699</ele>
3784 <time>2009-06-15T17:32:01.179Z</time>
3785 </trkpt>
3786 <trkpt lat="51.402375360" lon="6.706906750">
3787 <ele>10.658334096</ele>
3788 <time>2009-06-15T17:32:02.185Z</time>
3789 </trkpt>
3790 <trkpt lat="51.402340200" lon="6.706894560">
3791 <ele>10.946667417</ele>
3792 <time>2009-06-15T17:32:03.266Z</time>
3793 </trkpt>
3794 <trkpt lat="51.402286480" lon="6.706896320">
3795 <ele>11.523334122</ele>
3796 <time>2009-06-15T17:32:05.223Z</time>
3797 </trkpt>
3798 <trkpt lat="51.402237400" lon="6.706885170">
3799 <ele>12.086667442</ele>
3800 <time>2009-06-15T17:32:07.258Z</time>
3801 </trkpt>
3802 <trkpt lat="51.402177860" lon="6.706891720">
3803 <ele>12.906667519</ele>
3804 <time>2009-06-15T17:32:10.368Z</time>
3805 </trkpt>
3806 <trkpt lat="51.402124640" lon="6.706902270">
3807 <ele>13.420000903</ele>
3808 <time>2009-06-15T17:32:12.330Z</time>
3809 </trkpt>
3810 <trkpt lat="51.402058770" lon="6.706897160">
3811 <ele>14.135000928</ele>
3812 <time>2009-06-15T17:32:15.394Z</time>
3813 </trkpt>
3814 <trkpt lat="51.402033440" lon="6.706891230">
3815 <ele>14.371667608</ele>
3816 <time>2009-06-15T17:32:16.492Z</time>
3817 </trkpt>
3818 <trkpt lat="51.402010130" lon="6.706886640">
3819 <ele>14.611667569</ele>
3820 <time>2009-06-15T17:32:17.447Z</time>
3821 </trkpt>
3822 <trkpt lat="51.401939710" lon="6.706872850">
3823 <ele>15.066667493</ele>
3824 <time>2009-06-15T17:32:19.458Z</time>
3825 </trkpt>
3826 <trkpt lat="51.401862450" lon="6.706850490">
3827 <ele>15.738334147</ele>
3828 <time>2009-06-15T17:32:22.475Z</time>
3829 </trkpt>
3830 <trkpt lat="51.401796820" lon="6.706833900">
3831 <ele>16.176667531</ele>
3832 <time>2009-06-15T17:32:25.536Z</time>
3833 </trkpt>
3834 <trkpt lat="51.401736700" lon="6.706841240">
3835 <ele>16.536667697</ele>
3836 <time>2009-06-15T17:32:28.603Z</time>
3837 </trkpt>
3838 <trkpt lat="51.401705170" lon="6.706849840">
3839 <ele>16.781667837</ele>
3840 <time>2009-06-15T17:32:30.631Z</time>
3841 </trkpt>
3842 <trkpt lat="51.401681190" lon="6.706860660">
3843 <ele>17.038334529</ele>
3844 <time>2009-06-15T17:32:32.641Z</time>
3845 </trkpt>
3846 <trkpt lat="51.401624080" lon="6.706862940">
3847 <ele>17.460001310</ele>
3848 <time>2009-06-15T17:32:35.691Z</time>
3849 </trkpt>
3850 <trkpt lat="51.401582330" lon="6.706862020">
3851 <ele>17.743334707</ele>
3852 <time>2009-06-15T17:32:37.711Z</time>
3853 </trkpt>
3854 <trkpt lat="51.401539380" lon="6.706850670">
3855 <ele>17.891668065</ele>
3856 <time>2009-06-15T17:32:38.717Z</time>
3857 </trkpt>
3858 <trkpt lat="51.401473950" lon="6.706824680">
3859 <ele>18.213334656</ele>
3860 <time>2009-06-15T17:32:40.770Z</time>
3861 </trkpt>
3862 <trkpt lat="51.401395360" lon="6.706795180">
3863 <ele>18.671668116</ele>
3864 <time>2009-06-15T17:32:43.912Z</time>
3865 </trkpt>
3866 <trkpt lat="51.401356420" lon="6.706794600">
3867 <ele>18.933334796</ele>
3868 <time>2009-06-15T17:32:45.859Z</time>
3869 </trkpt>
3870 <trkpt lat="51.401315820" lon="6.706801400">
3871 <ele>19.195001411</ele>
3872 <time>2009-06-15T17:32:47.912Z</time>
3873 </trkpt>
3874 <trkpt lat="51.401281760" lon="6.706817620">
3875 <ele>19.445001348</ele>
3876 <time>2009-06-15T17:32:49.985Z</time>
3877 </trkpt>
3878 <trkpt lat="51.401262060" lon="6.706829010">
3879 <ele>19.555001322</ele>
3880 <time>2009-06-15T17:32:50.939Z</time>
3881 </trkpt>
3882 <trkpt lat="51.401237080" lon="6.706827440">
3883 <ele>19.656668027</ele>
3884 <time>2009-06-15T17:32:51.945Z</time>
3885 </trkpt>
3886 <trkpt lat="51.401196780" lon="6.706817870">
3887 <ele>19.903391305</ele>
3888 <time>2009-06-15T17:32:54.471Z</time>
3889 </trkpt>
3890 <trkpt lat="51.401154960" lon="6.706800480">
3891 <ele>19.983052335</ele>
3892 <time>2009-06-15T17:32:55.532Z</time>
3893 </trkpt>
3894 <trkpt lat="51.401098190" lon="6.706799000">
3895 <ele>20.122035398</ele>
3896 <time>2009-06-15T17:32:57.522Z</time>
3897 </trkpt>
3898 <trkpt lat="51.401020100" lon="6.706774690">
3899 <ele>20.272882882</ele>
3900 <time>2009-06-15T17:33:00.547Z</time>
3901 </trkpt>
3902 <trkpt lat="51.400994780" lon="6.706756550">
3903 <ele>20.293221942</ele>
3904 <time>2009-06-15T17:33:01.607Z</time>
3905 </trkpt>
3906 <trkpt lat="51.400919990" lon="6.706728040">
3907 <ele>20.306781187</ele>
3908 <time>2009-06-15T17:33:04.624Z</time>
3909 </trkpt>
3910 <trkpt lat="51.400891170" lon="6.706731940">
3911 <ele>20.311865984</ele>
3912 <time>2009-06-15T17:33:05.579Z</time>
3913 </trkpt>
3914 <trkpt lat="51.400868430" lon="6.706748030">
3915 <ele>20.320340561</ele>
3916 <time>2009-06-15T17:33:06.585Z</time>
3917 </trkpt>
3918 <trkpt lat="51.400854540" lon="6.706762990">
3919 <ele>20.310171095</ele>
3920 <time>2009-06-15T17:33:07.595Z</time>
3921 </trkpt>
3922 <trkpt lat="51.400834830" lon="6.706781010">
3923 <ele>20.288137145</ele>
3924 <time>2009-06-15T17:33:08.662Z</time>
3925 </trkpt>
3926 <trkpt lat="51.400775060" lon="6.706798390">
3927 <ele>20.188137184</ele>
3928 <time>2009-06-15T17:33:10.620Z</time>
3929 </trkpt>
3930 <trkpt lat="51.400627890" lon="6.706865660">
3931 <ele>20.183052386</ele>
3932 <time>2009-06-15T17:33:13.664Z</time>
3933 </trkpt>
3934 <trkpt lat="51.400559910" lon="6.706926560">
3935 <ele>20.279662504</ele>
3936 <time>2009-06-15T17:33:15.715Z</time>
3937 </trkpt>
3938 <trkpt lat="51.400538090" lon="6.706959560">
3939 <ele>20.335594759</ele>
3940 <time>2009-06-15T17:33:16.719Z</time>
3941 </trkpt>
3942 <trkpt lat="51.400520360" lon="6.706990230">
3943 <ele>20.389832125</ele>
3944 <time>2009-06-15T17:33:17.724Z</time>
3945 </trkpt>
3946 <trkpt lat="51.400486600" lon="6.707059580">
3947 <ele>20.469493219</ele>
3948 <time>2009-06-15T17:33:19.761Z</time>
3949 </trkpt>
3950 <trkpt lat="51.400466370" lon="6.707127120">
3951 <ele>20.494916948</ele>
3952 <time>2009-06-15T17:33:21.825Z</time>
3953 </trkpt>
3954 <trkpt lat="51.400458250" lon="6.707166910">
3955 <ele>20.493222059</ele>
3956 <time>2009-06-15T17:33:22.777Z</time>
3957 </trkpt>
3958 <trkpt lat="51.400454600" lon="6.707203860">
3959 <ele>20.486442501</ele>
3960 <time>2009-06-15T17:33:23.782Z</time>
3961 </trkpt>
3962 <trkpt lat="51.400430050" lon="6.707309670">
3963 <ele>20.452544196</ele>
3964 <time>2009-06-15T17:33:26.846Z</time>
3965 </trkpt>
3966 <trkpt lat="51.400402570" lon="6.707417940">
3967 <ele>20.384747457</ele>
3968 <time>2009-06-15T17:33:29.908Z</time>
3969 </trkpt>
3970 <trkpt lat="51.400378240" lon="6.707535910">
3971 <ele>20.328815072</ele>
3972 <time>2009-06-15T17:33:32.926Z</time>
3973 </trkpt>
3974 <trkpt lat="51.400356980" lon="6.707642550">
3975 <ele>20.269493038</ele>
3976 <time>2009-06-15T17:33:35.962Z</time>
3977 </trkpt>
3978 <trkpt lat="51.400333400" lon="6.707743900">
3979 <ele>20.162713326</ele>
3980 <time>2009-06-15T17:33:38.999Z</time>
3981 </trkpt>
3982 <trkpt lat="51.400310410" lon="6.707847540">
3983 <ele>20.008476063</ele>
3984 <time>2009-06-15T17:33:42.092Z</time>
3985 </trkpt>
3986 <trkpt lat="51.400275790" lon="6.707935120">
3987 <ele>19.918645632</ele>
3988 <time>2009-06-15T17:33:45.100Z</time>
3989 </trkpt>
3990 <trkpt lat="51.400253260" lon="6.708019390">
3991 <ele>19.837289778</ele>
3992 <time>2009-06-15T17:33:48.165Z</time>
3993 </trkpt>
3994 <trkpt lat="51.400239320" lon="6.708082110">
3995 <ele>19.800001823</ele>
3996 <time>2009-06-15T17:33:50.254Z</time>
3997 </trkpt>
3998 <trkpt lat="51.400224660" lon="6.708195240">
3999 <ele>19.820340755</ele>
4000 <time>2009-06-15T17:33:53.381Z</time>
4001 </trkpt>
4002 <trkpt lat="51.400227210" lon="6.708251600">
4003 <ele>19.886668332</ele>
4004 <time>2009-06-15T17:33:55.383Z</time>
4005 </trkpt>
4006 <trkpt lat="51.400237590" lon="6.708303870">
4007 <ele>19.980001767</ele>
4008 <time>2009-06-15T17:33:57.453Z</time>
4009 </trkpt>
4010 <trkpt lat="51.400245360" lon="6.708355110">
4011 <ele>20.101668358</ele>
4012 <time>2009-06-15T17:33:59.516Z</time>
4013 </trkpt>
4014 <trkpt lat="51.400251130" lon="6.708445580">
4015 <ele>20.343334897</ele>
4016 <time>2009-06-15T17:34:02.547Z</time>
4017 </trkpt>
4018 <trkpt lat="51.400248910" lon="6.708557400">
4019 <ele>20.608334923</ele>
4020 <time>2009-06-15T17:34:05.574Z</time>
4021 </trkpt>
4022 <trkpt lat="51.400244890" lon="6.708671860">
4023 <ele>20.981357445</ele>
4024 <time>2009-06-15T17:34:08.697Z</time>
4025 </trkpt>
4026 <trkpt lat="51.400245080" lon="6.708777890">
4027 <ele>21.438984628</ele>
4028 <time>2009-06-15T17:34:11.788Z</time>
4029 </trkpt>
4030 <trkpt lat="51.400254680" lon="6.708832070">
4031 <ele>21.630510104</ele>
4032 <time>2009-06-15T17:34:13.798Z</time>
4033 </trkpt>
4034 <trkpt lat="51.400264540" lon="6.708914730">
4035 <ele>21.800001629</ele>
4036 <time>2009-06-15T17:34:16.835Z</time>
4037 </trkpt>
4038 <trkpt lat="51.400278640" lon="6.708949710">
4039 <ele>21.855933755</ele>
4040 <time>2009-06-15T17:34:17.837Z</time>
4041 </trkpt>
4042 <trkpt lat="51.400297760" lon="6.709005350">
4043 <ele>21.959323560</ele>
4044 <time>2009-06-15T17:34:19.887Z</time>
4045 </trkpt>
4046 <trkpt lat="51.400306490" lon="6.709039850">
4047 <ele>22.061018475</ele>
4048 <time>2009-06-15T17:34:21.967Z</time>
4049 </trkpt>
4050 <trkpt lat="51.400322690" lon="6.709060340">
4051 <ele>22.120340509</ele>
4052 <time>2009-06-15T17:34:22.920Z</time>
4053 </trkpt>
4054 <trkpt lat="51.400333040" lon="6.709070070">
4055 <ele>22.179662543</ele>
4056 <time>2009-06-15T17:34:23.925Z</time>
4057 </trkpt>
4058 <trkpt lat="51.400352130" lon="6.709084780">
4059 <ele>22.242374485</ele>
4060 <time>2009-06-15T17:34:24.948Z</time>
4061 </trkpt>
4062 <trkpt lat="51.400367070" lon="6.709088680">
4063 <ele>22.313560874</ele>
4064 <time>2009-06-15T17:34:25.951Z</time>
4065 </trkpt>
4066 <trkpt lat="51.400387910" lon="6.709092670">
4067 <ele>22.401696415</ele>
4068 <time>2009-06-15T17:34:26.956Z</time>
4069 </trkpt>
4070 <trkpt lat="51.400413050" lon="6.709092820">
4071 <ele>22.500001552</ele>
4072 <time>2009-06-15T17:34:27.962Z</time>
4073 </trkpt>
4074 <trkpt lat="51.400435200" lon="6.709097210">
4075 <ele>22.608476154</ele>
4076 <time>2009-06-15T17:34:29.033Z</time>
4077 </trkpt>
4078 <trkpt lat="51.400458720" lon="6.709091040">
4079 <ele>22.723730443</ele>
4080 <time>2009-06-15T17:34:29.986Z</time>
4081 </trkpt>
4082 <trkpt lat="51.400516430" lon="6.709071920">
4083 <ele>23.076272867</ele>
4084 <time>2009-06-15T17:34:33.009Z</time>
4085 </trkpt>
4086 <trkpt lat="51.400540270" lon="6.709050740">
4087 <ele>23.311866114</ele>
4088 <time>2009-06-15T17:34:35.091Z</time>
4089 </trkpt>
4090 <trkpt lat="51.400554870" lon="6.709037340">
4091 <ele>23.432205071</ele>
4092 <time>2009-06-15T17:34:36.048Z</time>
4093 </trkpt>
4094 <trkpt lat="51.400571150" lon="6.709049430">
4095 <ele>23.561018734</ele>
4096 <time>2009-06-15T17:34:37.053Z</time>
4097 </trkpt>
4098 <trkpt lat="51.400583510" lon="6.709058240">
4099 <ele>23.691527286</ele>
4100 <time>2009-06-15T17:34:38.061Z</time>
4101 </trkpt>
4102 <trkpt lat="51.400611470" lon="6.709060280">
4103 <ele>23.964408616</ele>
4104 <time>2009-06-15T17:34:40.074Z</time>
4105 </trkpt>
4106 <trkpt lat="51.400631470" lon="6.709062540">
4107 <ele>24.203391641</ele>
4108 <time>2009-06-15T17:34:42.154Z</time>
4109 </trkpt>
4110 <trkpt lat="51.400675800" lon="6.709100060">
4111 <ele>24.650849165</ele>
4112 <time>2009-06-15T17:34:46.138Z</time>
4113 </trkpt>
4114 <trkpt lat="51.400715000" lon="6.709098960">
4115 <ele>24.921668371</ele>
4116 <time>2009-06-15T17:34:49.253Z</time>
4117 </trkpt>
4118 <trkpt lat="51.400766190" lon="6.709089560">
4119 <ele>25.253334936</ele>
4120 <time>2009-06-15T17:34:52.298Z</time>
4121 </trkpt>
4122 <trkpt lat="51.400819670" lon="6.709070120">
4123 <ele>25.446668371</ele>
4124 <time>2009-06-15T17:34:54.339Z</time>
4125 </trkpt>
4126 <trkpt lat="51.400848330" lon="6.709064500">
4127 <ele>25.538335037</ele>
4128 <time>2009-06-15T17:34:55.281Z</time>
4129 </trkpt>
4130 <trkpt lat="51.400936290" lon="6.709030950">
4131 <ele>25.788335037</ele>
4132 <time>2009-06-15T17:34:58.381Z</time>
4133 </trkpt>
4134 <trkpt lat="51.400950020" lon="6.709040830">
4135 <ele>25.863335037</ele>
4136 <time>2009-06-15T17:34:59.335Z</time>
4137 </trkpt>
4138 <trkpt lat="51.400976540" lon="6.709045330">
4139 <ele>26.073335012</ele>
4140 <time>2009-06-15T17:35:02.378Z</time>
4141 </trkpt>
4142 <trkpt lat="51.400988380" lon="6.709031320">
4143 <ele>26.177967912</ele>
4144 <time>2009-06-15T17:35:04.447Z</time>
4145 </trkpt>
4146 <trkpt lat="51.401031710" lon="6.709012680">
4147 <ele>26.461018708</ele>
4148 <time>2009-06-15T17:35:08.483Z</time>
4149 </trkpt>
4150 <trkpt lat="51.401031580" lon="6.709006970">
4151 <ele>26.532205226</ele>
4152 <time>2009-06-15T17:35:09.434Z</time>
4153 </trkpt>
4154 <trkpt lat="51.401043200" lon="6.709011170">
4155 <ele>26.603391615</ele>
4156 <time>2009-06-15T17:35:10.517Z</time>
4157 </trkpt>
4158 <trkpt lat="51.401059050" lon="6.709018920">
4159 <ele>26.888137171</ele>
4160 <time>2009-06-15T17:35:14.498Z</time>
4161 </trkpt>
4162 </trkseg>
4163 </trk>
4164</gpx>